<?xml version="1.0" encoding="UTF-8" standalone="no" ?>
<gpx xmlns="http://www.topografix.com/GPX/1/1" xmlns:xsi="http://www.w3.org/2001/XMLSchema-instance" xsi:schemaLocation="http://www.topografix.com/GPX/1/1 http://www.topografix.com/GPX/1/1/gpx.xsd" version="1.1" creator="VisuGPX - https://www.visugpx.com">
  <metadata>
    <name>ALCO_st_gely</name>
  </metadata>
  <trk>
    <name><![CDATA[ALCO_st_gely_1]]></name>
    <trkseg>
      <trkpt lat="43.6249" lon="3.83636">
        <ele>78.976509</ele>
        <time>2022-12-10T12:06:21Z</time>
      </trkpt>
      <trkpt lat="43.62541" lon="3.83618">
        <ele>77.490379</ele>
        <time>2022-12-10T12:06:31Z</time>
      </trkpt>
      <trkpt lat="43.62569" lon="3.83612">
        <ele>77.199669</ele>
        <time>2022-12-10T12:06:41Z</time>
      </trkpt>
      <trkpt lat="43.62562" lon="3.83583">
        <ele>77.644875</ele>
        <time>2022-12-10T12:06:51Z</time>
      </trkpt>
      <trkpt lat="43.62537" lon="3.83553">
        <ele>78.112869</ele>
        <time>2022-12-10T12:07:01Z</time>
      </trkpt>
      <trkpt lat="43.62525" lon="3.83519">
        <ele>77.993111</ele>
        <time>2022-12-10T12:07:11Z</time>
      </trkpt>
      <trkpt lat="43.6251" lon="3.83482">
        <ele>77.809517</ele>
        <time>2022-12-10T12:07:21Z</time>
      </trkpt>
      <trkpt lat="43.62511" lon="3.83432">
        <ele>77.21917</ele>
        <time>2022-12-10T12:07:31Z</time>
      </trkpt>
      <trkpt lat="43.62523" lon="3.8338">
        <ele>77.428139</ele>
        <time>2022-12-10T12:07:41Z</time>
      </trkpt>
      <trkpt lat="43.62537" lon="3.83335">
        <ele>78.621056</ele>
        <time>2022-12-10T12:07:51Z</time>
      </trkpt>
      <trkpt lat="43.62549" lon="3.83289">
        <ele>80.128418</ele>
        <time>2022-12-10T12:08:01Z</time>
      </trkpt>
      <trkpt lat="43.62574" lon="3.83261">
        <ele>81.582275</ele>
        <time>2022-12-10T12:08:11Z</time>
      </trkpt>
      <trkpt lat="43.62597" lon="3.83229">
        <ele>83.391113</ele>
        <time>2022-12-10T12:08:21Z</time>
      </trkpt>
      <trkpt lat="43.62615" lon="3.83202">
        <ele>85.22998</ele>
        <time>2022-12-10T12:08:31Z</time>
      </trkpt>
      <trkpt lat="43.62617" lon="3.83169">
        <ele>85.094727</ele>
        <time>2022-12-10T12:08:41Z</time>
      </trkpt>
      <trkpt lat="43.62631" lon="3.83138">
        <ele>84.958031</ele>
        <time>2022-12-10T12:08:51Z</time>
      </trkpt>
      <trkpt lat="43.62637" lon="3.83102">
        <ele>83.883202</ele>
        <time>2022-12-10T12:09:01Z</time>
      </trkpt>
      <trkpt lat="43.62642" lon="3.83059">
        <ele>81.304543</ele>
        <time>2022-12-10T12:09:11Z</time>
      </trkpt>
      <trkpt lat="43.62648" lon="3.83016">
        <ele>77.82148</ele>
        <time>2022-12-10T12:09:21Z</time>
      </trkpt>
      <trkpt lat="43.62671" lon="3.83019">
        <ele>75.504883</ele>
        <time>2022-12-10T12:09:31Z</time>
      </trkpt>
      <trkpt lat="43.62693" lon="3.83026">
        <ele>76.206154</ele>
        <time>2022-12-10T12:09:41Z</time>
      </trkpt>
      <trkpt lat="43.62718" lon="3.83034">
        <ele>77.240883</ele>
        <time>2022-12-10T12:09:51Z</time>
      </trkpt>
      <trkpt lat="43.62742" lon="3.83048">
        <ele>78.302361</ele>
        <time>2022-12-10T12:10:01Z</time>
      </trkpt>
      <trkpt lat="43.62761" lon="3.83067">
        <ele>79.847656</ele>
        <time>2022-12-10T12:10:11Z</time>
      </trkpt>
      <trkpt lat="43.62777" lon="3.83095">
        <ele>81.944244</ele>
        <time>2022-12-10T12:10:21Z</time>
      </trkpt>
      <trkpt lat="43.62808" lon="3.83091">
        <ele>82.9813</ele>
        <time>2022-12-10T12:10:31Z</time>
      </trkpt>
      <trkpt lat="43.62838" lon="3.83086">
        <ele>82.485252</ele>
        <time>2022-12-10T12:10:41Z</time>
      </trkpt>
      <trkpt lat="43.62838" lon="3.83039">
        <ele>81.126572</ele>
        <time>2022-12-10T12:10:51Z</time>
      </trkpt>
      <trkpt lat="43.62833" lon="3.82979">
        <ele>76.38958</ele>
        <time>2022-12-10T12:11:01Z</time>
      </trkpt>
      <trkpt lat="43.62838" lon="3.8294">
        <ele>71.866508</ele>
        <time>2022-12-10T12:11:11Z</time>
      </trkpt>
      <trkpt lat="43.62865" lon="3.82947">
        <ele>71.292946</ele>
        <time>2022-12-10T12:11:21Z</time>
      </trkpt>
      <trkpt lat="43.62896" lon="3.82953">
        <ele>72.559334</ele>
        <time>2022-12-10T12:11:31Z</time>
      </trkpt>
      <trkpt lat="43.62922" lon="3.82965">
        <ele>73.87989</ele>
        <time>2022-12-10T12:11:41Z</time>
      </trkpt>
      <trkpt lat="43.62948" lon="3.82975">
        <ele>75.297707</ele>
        <time>2022-12-10T12:11:51Z</time>
      </trkpt>
      <trkpt lat="43.62976" lon="3.82973">
        <ele>76.392708</ele>
        <time>2022-12-10T12:12:01Z</time>
      </trkpt>
      <trkpt lat="43.63006" lon="3.82958">
        <ele>76.497231</ele>
        <time>2022-12-10T12:12:11Z</time>
      </trkpt>
      <trkpt lat="43.63033" lon="3.82962">
        <ele>76.676743</ele>
        <time>2022-12-10T12:12:21Z</time>
      </trkpt>
      <trkpt lat="43.63054" lon="3.82986">
        <ele>78.316429</ele>
        <time>2022-12-10T12:12:31Z</time>
      </trkpt>
      <trkpt lat="43.63074" lon="3.82984">
        <ele>79.794083</ele>
        <time>2022-12-10T12:12:41Z</time>
      </trkpt>
      <trkpt lat="43.63103" lon="3.82973">
        <ele>80.025444</ele>
        <time>2022-12-10T12:12:51Z</time>
      </trkpt>
      <trkpt lat="43.63133" lon="3.82978">
        <ele>81.055016</ele>
        <time>2022-12-10T12:13:01Z</time>
      </trkpt>
      <trkpt lat="43.63168" lon="3.82976">
        <ele>82.535408</ele>
        <time>2022-12-10T12:13:11Z</time>
      </trkpt>
      <trkpt lat="43.63194" lon="3.82959">
        <ele>82.983513</ele>
        <time>2022-12-10T12:13:21Z</time>
      </trkpt>
      <trkpt lat="43.63204" lon="3.82933">
        <ele>83.533646</ele>
        <time>2022-12-10T12:13:31Z</time>
      </trkpt>
      <trkpt lat="43.63193" lon="3.82896">
        <ele>82.8713</ele>
        <time>2022-12-10T12:13:41Z</time>
      </trkpt>
      <trkpt lat="43.63187" lon="3.82859">
        <ele>81.815163</ele>
        <time>2022-12-10T12:13:51Z</time>
      </trkpt>
      <trkpt lat="43.63179" lon="3.8282">
        <ele>79.512047</ele>
        <time>2022-12-10T12:14:01Z</time>
      </trkpt>
      <trkpt lat="43.63178" lon="3.82784">
        <ele>76.94352</ele>
        <time>2022-12-10T12:14:11Z</time>
      </trkpt>
      <trkpt lat="43.63192" lon="3.82758">
        <ele>75.627686</ele>
        <time>2022-12-10T12:14:21Z</time>
      </trkpt>
      <trkpt lat="43.63208" lon="3.8273">
        <ele>74.63485</ele>
        <time>2022-12-10T12:14:31Z</time>
      </trkpt>
      <trkpt lat="43.63227" lon="3.82699">
        <ele>74.046204</ele>
        <time>2022-12-10T12:14:41Z</time>
      </trkpt>
      <trkpt lat="43.63245" lon="3.82667">
        <ele>73.585686</ele>
        <time>2022-12-10T12:14:51Z</time>
      </trkpt>
      <trkpt lat="43.63273" lon="3.82636">
        <ele>73.285484</ele>
        <time>2022-12-10T12:15:01Z</time>
      </trkpt>
      <trkpt lat="43.63303" lon="3.8261">
        <ele>73.208336</ele>
        <time>2022-12-10T12:15:11Z</time>
      </trkpt>
      <trkpt lat="43.63335" lon="3.82582">
        <ele>73.934776</ele>
        <time>2022-12-10T12:15:21Z</time>
      </trkpt>
      <trkpt lat="43.63373" lon="3.82561">
        <ele>75.497253</ele>
        <time>2022-12-10T12:15:31Z</time>
      </trkpt>
      <trkpt lat="43.63406" lon="3.82554">
        <ele>77.429848</ele>
        <time>2022-12-10T12:15:41Z</time>
      </trkpt>
      <trkpt lat="43.63436" lon="3.8255">
        <ele>79.454803</ele>
        <time>2022-12-10T12:15:51Z</time>
      </trkpt>
      <trkpt lat="43.63462" lon="3.82546">
        <ele>81.209984</ele>
        <time>2022-12-10T12:16:01Z</time>
      </trkpt>
      <trkpt lat="43.63488" lon="3.82544">
        <ele>83.011681</ele>
        <time>2022-12-10T12:16:11Z</time>
      </trkpt>
      <trkpt lat="43.63514" lon="3.82539">
        <ele>84.72361</ele>
        <time>2022-12-10T12:16:21Z</time>
      </trkpt>
      <trkpt lat="43.63542" lon="3.82534">
        <ele>86.392052</ele>
        <time>2022-12-10T12:16:31Z</time>
      </trkpt>
      <trkpt lat="43.6357" lon="3.82518">
        <ele>88.225441</ele>
        <time>2022-12-10T12:16:41Z</time>
      </trkpt>
      <trkpt lat="43.6358" lon="3.82562">
        <ele>89.781288</ele>
        <time>2022-12-10T12:16:51Z</time>
      </trkpt>
      <trkpt lat="43.63586" lon="3.82605">
        <ele>90.644867</ele>
        <time>2022-12-10T12:17:01Z</time>
      </trkpt>
      <trkpt lat="43.63599" lon="3.82649">
        <ele>91.393669</ele>
        <time>2022-12-10T12:17:11Z</time>
      </trkpt>
      <trkpt lat="43.6363" lon="3.82688">
        <ele>91.94532</ele>
        <time>2022-12-10T12:17:21Z</time>
      </trkpt>
      <trkpt lat="43.63636" lon="3.82762">
        <ele>91.135323</ele>
        <time>2022-12-10T12:17:31Z</time>
      </trkpt>
      <trkpt lat="43.63684" lon="3.82773">
        <ele>87.763344</ele>
        <time>2022-12-10T12:17:41Z</time>
      </trkpt>
      <trkpt lat="43.63732" lon="3.82762">
        <ele>86.590004</ele>
        <time>2022-12-10T12:17:51Z</time>
      </trkpt>
      <trkpt lat="43.63778" lon="3.8275">
        <ele>85.97168</ele>
        <time>2022-12-10T12:18:01Z</time>
      </trkpt>
      <trkpt lat="43.63818" lon="3.82731">
        <ele>86.517006</ele>
        <time>2022-12-10T12:18:11Z</time>
      </trkpt>
      <trkpt lat="43.63853" lon="3.8272">
        <ele>87.957214</ele>
        <time>2022-12-10T12:18:21Z</time>
      </trkpt>
      <trkpt lat="43.63875" lon="3.82737">
        <ele>88.284691</ele>
        <time>2022-12-10T12:18:31Z</time>
      </trkpt>
      <trkpt lat="43.63896" lon="3.8276">
        <ele>86.289146</ele>
        <time>2022-12-10T12:18:41Z</time>
      </trkpt>
      <trkpt lat="43.6392" lon="3.82808">
        <ele>83.655678</ele>
        <time>2022-12-10T12:18:51Z</time>
      </trkpt>
      <trkpt lat="43.63945" lon="3.82818">
        <ele>81.783012</ele>
        <time>2022-12-10T12:19:01Z</time>
      </trkpt>
      <trkpt lat="43.63973" lon="3.82798">
        <ele>81.868095</ele>
        <time>2022-12-10T12:19:11Z</time>
      </trkpt>
      <trkpt lat="43.63998" lon="3.82797">
        <ele>82.644943</ele>
        <time>2022-12-10T12:19:21Z</time>
      </trkpt>
      <trkpt lat="43.64016" lon="3.82775">
        <ele>83.538902</ele>
        <time>2022-12-10T12:19:31Z</time>
      </trkpt>
      <trkpt lat="43.6404" lon="3.82761">
        <ele>84.938087</ele>
        <time>2022-12-10T12:19:41Z</time>
      </trkpt>
      <trkpt lat="43.64062" lon="3.8274">
        <ele>86.089455</ele>
        <time>2022-12-10T12:19:51Z</time>
      </trkpt>
      <trkpt lat="43.64085" lon="3.82722">
        <ele>87.733124</ele>
        <time>2022-12-10T12:20:01Z</time>
      </trkpt>
      <trkpt lat="43.64108" lon="3.82699">
        <ele>89.217934</ele>
        <time>2022-12-10T12:20:11Z</time>
      </trkpt>
      <trkpt lat="43.6413" lon="3.82676">
        <ele>90.791016</ele>
        <time>2022-12-10T12:20:21Z</time>
      </trkpt>
      <trkpt lat="43.6415" lon="3.82653">
        <ele>92.118195</ele>
        <time>2022-12-10T12:20:31Z</time>
      </trkpt>
      <trkpt lat="43.64169" lon="3.82628">
        <ele>93.478844</ele>
        <time>2022-12-10T12:20:41Z</time>
      </trkpt>
      <trkpt lat="43.64189" lon="3.82601">
        <ele>95.037445</ele>
        <time>2022-12-10T12:20:51Z</time>
      </trkpt>
      <trkpt lat="43.64208" lon="3.82572">
        <ele>96.232582</ele>
        <time>2022-12-10T12:21:01Z</time>
      </trkpt>
      <trkpt lat="43.64223" lon="3.82543">
        <ele>97.146645</ele>
        <time>2022-12-10T12:21:11Z</time>
      </trkpt>
      <trkpt lat="43.64239" lon="3.82511">
        <ele>98.077759</ele>
        <time>2022-12-10T12:21:21Z</time>
      </trkpt>
      <trkpt lat="43.64254" lon="3.82475">
        <ele>99.509315</ele>
        <time>2022-12-10T12:21:31Z</time>
      </trkpt>
      <trkpt lat="43.6427" lon="3.82441">
        <ele>100.993652</ele>
        <time>2022-12-10T12:21:41Z</time>
      </trkpt>
      <trkpt lat="43.64285" lon="3.82408">
        <ele>102.003906</ele>
        <time>2022-12-10T12:21:51Z</time>
      </trkpt>
      <trkpt lat="43.64305" lon="3.82387">
        <ele>102.921356</ele>
        <time>2022-12-10T12:22:01Z</time>
      </trkpt>
      <trkpt lat="43.64317" lon="3.82357">
        <ele>103.616341</ele>
        <time>2022-12-10T12:22:11Z</time>
      </trkpt>
      <trkpt lat="43.6433" lon="3.82321">
        <ele>104.506508</ele>
        <time>2022-12-10T12:22:21Z</time>
      </trkpt>
      <trkpt lat="43.64342" lon="3.82291">
        <ele>105.434715</ele>
        <time>2022-12-10T12:22:31Z</time>
      </trkpt>
      <trkpt lat="43.64354" lon="3.82269">
        <ele>105.996605</ele>
        <time>2022-12-10T12:22:41Z</time>
      </trkpt>
      <trkpt lat="43.64371" lon="3.8226">
        <ele>106.221596</ele>
        <time>2022-12-10T12:22:51Z</time>
      </trkpt>
      <trkpt lat="43.64399" lon="3.82252">
        <ele>106.020271</ele>
        <time>2022-12-10T12:23:01Z</time>
      </trkpt>
      <trkpt lat="43.64424" lon="3.82247">
        <ele>105.802002</ele>
        <time>2022-12-10T12:23:11Z</time>
      </trkpt>
      <trkpt lat="43.64449" lon="3.82269">
        <ele>105.358398</ele>
        <time>2022-12-10T12:23:21Z</time>
      </trkpt>
      <trkpt lat="43.64468" lon="3.82285">
        <ele>104.635628</ele>
        <time>2022-12-10T12:23:31Z</time>
      </trkpt>
      <trkpt lat="43.64497" lon="3.82293">
        <ele>104.018127</ele>
        <time>2022-12-10T12:23:41Z</time>
      </trkpt>
      <trkpt lat="43.64517" lon="3.82304">
        <ele>103.412445</ele>
        <time>2022-12-10T12:23:51Z</time>
      </trkpt>
      <trkpt lat="43.64552" lon="3.8231">
        <ele>102.76461</ele>
        <time>2022-12-10T12:24:01Z</time>
      </trkpt>
      <trkpt lat="43.64584" lon="3.82328">
        <ele>101.763672</ele>
        <time>2022-12-10T12:24:11Z</time>
      </trkpt>
      <trkpt lat="43.64619" lon="3.82355">
        <ele>101.121025</ele>
        <time>2022-12-10T12:24:21Z</time>
      </trkpt>
      <trkpt lat="43.6465" lon="3.82379">
        <ele>100.557007</ele>
        <time>2022-12-10T12:24:31Z</time>
      </trkpt>
      <trkpt lat="43.64682" lon="3.82402">
        <ele>100.762329</ele>
        <time>2022-12-10T12:24:41Z</time>
      </trkpt>
      <trkpt lat="43.6471" lon="3.8242">
        <ele>100.936455</ele>
        <time>2022-12-10T12:24:51Z</time>
      </trkpt>
      <trkpt lat="43.64741" lon="3.82429">
        <ele>101.078239</ele>
        <time>2022-12-10T12:25:01Z</time>
      </trkpt>
      <trkpt lat="43.64771" lon="3.82426">
        <ele>100.955421</ele>
        <time>2022-12-10T12:25:11Z</time>
      </trkpt>
      <trkpt lat="43.64797" lon="3.82422">
        <ele>100.497322</ele>
        <time>2022-12-10T12:25:21Z</time>
      </trkpt>
      <trkpt lat="43.6482" lon="3.82418">
        <ele>100.049309</ele>
        <time>2022-12-10T12:25:31Z</time>
      </trkpt>
      <trkpt lat="43.64845" lon="3.82415">
        <ele>99.896263</ele>
        <time>2022-12-10T12:25:41Z</time>
      </trkpt>
      <trkpt lat="43.64869" lon="3.82414">
        <ele>99.733032</ele>
        <time>2022-12-10T12:25:51Z</time>
      </trkpt>
      <trkpt lat="43.64887" lon="3.82435">
        <ele>101.38932</ele>
        <time>2022-12-10T12:26:01Z</time>
      </trkpt>
      <trkpt lat="43.64904" lon="3.82455">
        <ele>104.363609</ele>
        <time>2022-12-10T12:26:11Z</time>
      </trkpt>
      <trkpt lat="43.64925" lon="3.82459">
        <ele>107.134033</ele>
        <time>2022-12-10T12:26:21Z</time>
      </trkpt>
      <trkpt lat="43.64951" lon="3.82442">
        <ele>107.932274</ele>
        <time>2022-12-10T12:26:31Z</time>
      </trkpt>
      <trkpt lat="43.64973" lon="3.82446">
        <ele>109.394737</ele>
        <time>2022-12-10T12:26:41Z</time>
      </trkpt>
      <trkpt lat="43.6499" lon="3.82447">
        <ele>111.567863</ele>
        <time>2022-12-10T12:26:51Z</time>
      </trkpt>
      <trkpt lat="43.65002" lon="3.82429">
        <ele>111.797493</ele>
        <time>2022-12-10T12:27:01Z</time>
      </trkpt>
      <trkpt lat="43.65018" lon="3.82414">
        <ele>111.122307</ele>
        <time>2022-12-10T12:27:11Z</time>
      </trkpt>
      <trkpt lat="43.65039" lon="3.82408">
        <ele>111.378662</ele>
        <time>2022-12-10T12:27:21Z</time>
      </trkpt>
      <trkpt lat="43.65059" lon="3.82404">
        <ele>112.337158</ele>
        <time>2022-12-10T12:27:31Z</time>
      </trkpt>
      <trkpt lat="43.65067" lon="3.82388">
        <ele>113.012367</ele>
        <time>2022-12-10T12:27:41Z</time>
      </trkpt>
      <trkpt lat="43.6508" lon="3.82359">
        <ele>110.137749</ele>
        <time>2022-12-10T12:27:51Z</time>
      </trkpt>
      <trkpt lat="43.65103" lon="3.82352">
        <ele>108.51123</ele>
        <time>2022-12-10T12:28:01Z</time>
      </trkpt>
      <trkpt lat="43.65124" lon="3.82363">
        <ele>109.849609</ele>
        <time>2022-12-10T12:28:11Z</time>
      </trkpt>
      <trkpt lat="43.65141" lon="3.82387">
        <ele>112.744385</ele>
        <time>2022-12-10T12:28:21Z</time>
      </trkpt>
      <trkpt lat="43.65155" lon="3.82417">
        <ele>116.348686</ele>
        <time>2022-12-10T12:28:31Z</time>
      </trkpt>
      <trkpt lat="43.65161" lon="3.82463">
        <ele>119.586754</ele>
        <time>2022-12-10T12:28:41Z</time>
      </trkpt>
      <trkpt lat="43.65161" lon="3.82503">
        <ele>122.698082</ele>
        <time>2022-12-10T12:28:51Z</time>
      </trkpt>
      <trkpt lat="43.65182" lon="3.82512">
        <ele>122.853737</ele>
        <time>2022-12-10T12:29:01Z</time>
      </trkpt>
      <trkpt lat="43.6522" lon="3.82523">
        <ele>122.044029</ele>
        <time>2022-12-10T12:29:11Z</time>
      </trkpt>
      <trkpt lat="43.65256" lon="3.8254">
        <ele>120.566551</ele>
        <time>2022-12-10T12:29:21Z</time>
      </trkpt>
      <trkpt lat="43.65294" lon="3.82555">
        <ele>119.022896</ele>
        <time>2022-12-10T12:29:31Z</time>
      </trkpt>
      <trkpt lat="43.65346" lon="3.82584">
        <ele>115.1698</ele>
        <time>2022-12-10T12:29:41Z</time>
      </trkpt>
      <trkpt lat="43.65388" lon="3.82607">
        <ele>110.416786</ele>
        <time>2022-12-10T12:29:51Z</time>
      </trkpt>
      <trkpt lat="43.65425" lon="3.8262">
        <ele>107.627983</ele>
        <time>2022-12-10T12:30:01Z</time>
      </trkpt>
      <trkpt lat="43.65453" lon="3.82645">
        <ele>108.441566</ele>
        <time>2022-12-10T12:30:11Z</time>
      </trkpt>
      <trkpt lat="43.65474" lon="3.82666">
        <ele>112.414391</ele>
        <time>2022-12-10T12:30:21Z</time>
      </trkpt>
      <trkpt lat="43.65497" lon="3.82687">
        <ele>114.206604</ele>
        <time>2022-12-10T12:30:31Z</time>
      </trkpt>
      <trkpt lat="43.6551" lon="3.82715">
        <ele>116.844025</ele>
        <time>2022-12-10T12:30:41Z</time>
      </trkpt>
      <trkpt lat="43.65518" lon="3.82737">
        <ele>120.655571</ele>
        <time>2022-12-10T12:30:51Z</time>
      </trkpt>
      <trkpt lat="43.6553" lon="3.82759">
        <ele>122.551186</ele>
        <time>2022-12-10T12:31:01Z</time>
      </trkpt>
      <trkpt lat="43.65541" lon="3.82779">
        <ele>123.714417</ele>
        <time>2022-12-10T12:31:11Z</time>
      </trkpt>
      <trkpt lat="43.65559" lon="3.82798">
        <ele>124.53611</ele>
        <time>2022-12-10T12:31:21Z</time>
      </trkpt>
      <trkpt lat="43.65575" lon="3.82803">
        <ele>124.075356</ele>
        <time>2022-12-10T12:31:31Z</time>
      </trkpt>
      <trkpt lat="43.65589" lon="3.8282">
        <ele>123.127686</ele>
        <time>2022-12-10T12:31:41Z</time>
      </trkpt>
      <trkpt lat="43.65593" lon="3.82849">
        <ele>123.708107</ele>
        <time>2022-12-10T12:31:51Z</time>
      </trkpt>
      <trkpt lat="43.65613" lon="3.82877">
        <ele>124.984467</ele>
        <time>2022-12-10T12:32:01Z</time>
      </trkpt>
      <trkpt lat="43.65634" lon="3.82892">
        <ele>124.467354</ele>
        <time>2022-12-10T12:32:11Z</time>
      </trkpt>
      <trkpt lat="43.65661" lon="3.82904">
        <ele>121.902214</ele>
        <time>2022-12-10T12:32:21Z</time>
      </trkpt>
      <trkpt lat="43.65679" lon="3.82912">
        <ele>119.195107</ele>
        <time>2022-12-10T12:32:31Z</time>
      </trkpt>
      <trkpt lat="43.65702" lon="3.82921">
        <ele>116.865318</ele>
        <time>2022-12-10T12:32:41Z</time>
      </trkpt>
      <trkpt lat="43.65733" lon="3.82925">
        <ele>112.389977</ele>
        <time>2022-12-10T12:32:51Z</time>
      </trkpt>
      <trkpt lat="43.6575" lon="3.82954">
        <ele>109.180908</ele>
        <time>2022-12-10T12:33:01Z</time>
      </trkpt>
      <trkpt lat="43.65767" lon="3.82998">
        <ele>106.999184</ele>
        <time>2022-12-10T12:33:11Z</time>
      </trkpt>
      <trkpt lat="43.65782" lon="3.83035">
        <ele>104.456993</ele>
        <time>2022-12-10T12:33:21Z</time>
      </trkpt>
      <trkpt lat="43.65803" lon="3.83025">
        <ele>100.597984</ele>
        <time>2022-12-10T12:33:31Z</time>
      </trkpt>
      <trkpt lat="43.65829" lon="3.8301">
        <ele>98.014519</ele>
        <time>2022-12-10T12:33:41Z</time>
      </trkpt>
      <trkpt lat="43.65857" lon="3.83008">
        <ele>95.442848</ele>
        <time>2022-12-10T12:33:51Z</time>
      </trkpt>
      <trkpt lat="43.65886" lon="3.83004">
        <ele>94.259712</ele>
        <time>2022-12-10T12:34:01Z</time>
      </trkpt>
      <trkpt lat="43.65911" lon="3.83001">
        <ele>93.240814</ele>
        <time>2022-12-10T12:34:11Z</time>
      </trkpt>
      <trkpt lat="43.65939" lon="3.82997">
        <ele>93.860298</ele>
        <time>2022-12-10T12:34:21Z</time>
      </trkpt>
      <trkpt lat="43.65966" lon="3.82993">
        <ele>94.861877</ele>
        <time>2022-12-10T12:34:31Z</time>
      </trkpt>
      <trkpt lat="43.65989" lon="3.82991">
        <ele>96.659157</ele>
        <time>2022-12-10T12:34:41Z</time>
      </trkpt>
      <trkpt lat="43.66016" lon="3.82986">
        <ele>99.097168</ele>
        <time>2022-12-10T12:34:51Z</time>
      </trkpt>
      <trkpt lat="43.6604" lon="3.82984">
        <ele>101.780701</ele>
        <time>2022-12-10T12:35:01Z</time>
      </trkpt>
      <trkpt lat="43.66069" lon="3.8298">
        <ele>105.528008</ele>
        <time>2022-12-10T12:35:11Z</time>
      </trkpt>
      <trkpt lat="43.66094" lon="3.82979">
        <ele>109.388206</ele>
        <time>2022-12-10T12:35:21Z</time>
      </trkpt>
      <trkpt lat="43.66122" lon="3.82985">
        <ele>112.676613</ele>
        <time>2022-12-10T12:35:31Z</time>
      </trkpt>
      <trkpt lat="43.66148" lon="3.82999">
        <ele>114.985596</ele>
        <time>2022-12-10T12:35:41Z</time>
      </trkpt>
      <trkpt lat="43.66171" lon="3.83014">
        <ele>115.970306</ele>
        <time>2022-12-10T12:35:51Z</time>
      </trkpt>
      <trkpt lat="43.66191" lon="3.83029">
        <ele>116.450554</ele>
        <time>2022-12-10T12:36:01Z</time>
      </trkpt>
      <trkpt lat="43.66212" lon="3.83038">
        <ele>116.823677</ele>
        <time>2022-12-10T12:36:11Z</time>
      </trkpt>
      <trkpt lat="43.66233" lon="3.83033">
        <ele>118.886169</ele>
        <time>2022-12-10T12:36:21Z</time>
      </trkpt>
      <trkpt lat="43.66254" lon="3.83025">
        <ele>121.936737</ele>
        <time>2022-12-10T12:36:31Z</time>
      </trkpt>
      <trkpt lat="43.66276" lon="3.83017">
        <ele>124.179016</ele>
        <time>2022-12-10T12:36:41Z</time>
      </trkpt>
      <trkpt lat="43.66295" lon="3.83006">
        <ele>126.374359</ele>
        <time>2022-12-10T12:36:51Z</time>
      </trkpt>
      <trkpt lat="43.66311" lon="3.82994">
        <ele>128.589706</ele>
        <time>2022-12-10T12:37:01Z</time>
      </trkpt>
      <trkpt lat="43.66322" lon="3.82979">
        <ele>130.492477</ele>
        <time>2022-12-10T12:37:11Z</time>
      </trkpt>
      <trkpt lat="43.66336" lon="3.82962">
        <ele>132.135361</ele>
        <time>2022-12-10T12:37:21Z</time>
      </trkpt>
      <trkpt lat="43.66354" lon="3.82948">
        <ele>133.871017</ele>
        <time>2022-12-10T12:37:31Z</time>
      </trkpt>
      <trkpt lat="43.6638" lon="3.82937">
        <ele>134.808212</ele>
        <time>2022-12-10T12:37:41Z</time>
      </trkpt>
      <trkpt lat="43.66402" lon="3.8292">
        <ele>135.317184</ele>
        <time>2022-12-10T12:37:51Z</time>
      </trkpt>
      <trkpt lat="43.66425" lon="3.82903">
        <ele>135.476181</ele>
        <time>2022-12-10T12:38:01Z</time>
      </trkpt>
      <trkpt lat="43.66453" lon="3.82882">
        <ele>135.729904</ele>
        <time>2022-12-10T12:38:11Z</time>
      </trkpt>
      <trkpt lat="43.66481" lon="3.8286">
        <ele>135.43898</ele>
        <time>2022-12-10T12:38:21Z</time>
      </trkpt>
      <trkpt lat="43.6651" lon="3.82837">
        <ele>135.190262</ele>
        <time>2022-12-10T12:38:31Z</time>
      </trkpt>
      <trkpt lat="43.66544" lon="3.82811">
        <ele>135.409164</ele>
        <time>2022-12-10T12:38:41Z</time>
      </trkpt>
      <trkpt lat="43.66579" lon="3.82787">
        <ele>133.752808</ele>
        <time>2022-12-10T12:38:51Z</time>
      </trkpt>
      <trkpt lat="43.66613" lon="3.82763">
        <ele>132.054337</ele>
        <time>2022-12-10T12:39:01Z</time>
      </trkpt>
      <trkpt lat="43.66643" lon="3.82742">
        <ele>130.134323</ele>
        <time>2022-12-10T12:39:11Z</time>
      </trkpt>
      <trkpt lat="43.6666" lon="3.82731">
        <ele>128.274765</ele>
        <time>2022-12-10T12:39:21Z</time>
      </trkpt>
      <trkpt lat="43.66666" lon="3.82728">
        <ele>128.116928</ele>
        <time>2022-12-10T12:39:31Z</time>
      </trkpt>
      <trkpt lat="43.66675" lon="3.8272">
        <ele>128.326401</ele>
        <time>2022-12-10T12:39:41Z</time>
      </trkpt>
      <trkpt lat="43.66693" lon="3.827">
        <ele>128.683838</ele>
        <time>2022-12-10T12:39:51Z</time>
      </trkpt>
      <trkpt lat="43.667" lon="3.82673">
        <ele>130.500381</ele>
        <time>2022-12-10T12:40:01Z</time>
      </trkpt>
      <trkpt lat="43.66718" lon="3.82664">
        <ele>131.272568</ele>
        <time>2022-12-10T12:40:11Z</time>
      </trkpt>
      <trkpt lat="43.66741" lon="3.82649">
        <ele>130.491196</ele>
        <time>2022-12-10T12:40:21Z</time>
      </trkpt>
      <trkpt lat="43.66771" lon="3.82628">
        <ele>129.684433</ele>
        <time>2022-12-10T12:40:31Z</time>
      </trkpt>
      <trkpt lat="43.66805" lon="3.82604">
        <ele>128.137466</ele>
        <time>2022-12-10T12:40:41Z</time>
      </trkpt>
      <trkpt lat="43.66833" lon="3.82573">
        <ele>127.191704</ele>
        <time>2022-12-10T12:40:51Z</time>
      </trkpt>
      <trkpt lat="43.66863" lon="3.82542">
        <ele>126.246391</ele>
        <time>2022-12-10T12:41:01Z</time>
      </trkpt>
      <trkpt lat="43.66894" lon="3.82511">
        <ele>125.550621</ele>
        <time>2022-12-10T12:41:11Z</time>
      </trkpt>
      <trkpt lat="43.66915" lon="3.82491">
        <ele>124.785484</ele>
        <time>2022-12-10T12:41:21Z</time>
      </trkpt>
      <trkpt lat="43.6694" lon="3.82468">
        <ele>124.549706</ele>
        <time>2022-12-10T12:41:31Z</time>
      </trkpt>
      <trkpt lat="43.66957" lon="3.8245">
        <ele>124.316124</ele>
        <time>2022-12-10T12:41:41Z</time>
      </trkpt>
      <trkpt lat="43.66986" lon="3.82414">
        <ele>124.112648</ele>
        <time>2022-12-10T12:41:51Z</time>
      </trkpt>
      <trkpt lat="43.67003" lon="3.824">
        <ele>124.137482</ele>
        <time>2022-12-10T12:42:01Z</time>
      </trkpt>
      <trkpt lat="43.6702" lon="3.82373">
        <ele>124.566017</ele>
        <time>2022-12-10T12:42:11Z</time>
      </trkpt>
      <trkpt lat="43.67029" lon="3.82341">
        <ele>126.112236</ele>
        <time>2022-12-10T12:42:21Z</time>
      </trkpt>
      <trkpt lat="43.67039" lon="3.82313">
        <ele>127.670074</ele>
        <time>2022-12-10T12:42:31Z</time>
      </trkpt>
      <trkpt lat="43.67047" lon="3.82282">
        <ele>128.870544</ele>
        <time>2022-12-10T12:42:41Z</time>
      </trkpt>
      <trkpt lat="43.67059" lon="3.82261">
        <ele>129.956833</ele>
        <time>2022-12-10T12:42:51Z</time>
      </trkpt>
      <trkpt lat="43.67079" lon="3.82265">
        <ele>129.775482</ele>
        <time>2022-12-10T12:43:01Z</time>
      </trkpt>
      <trkpt lat="43.67112" lon="3.82297">
        <ele>128.383057</ele>
        <time>2022-12-10T12:43:11Z</time>
      </trkpt>
      <trkpt lat="43.67136" lon="3.82304">
        <ele>126.176758</ele>
        <time>2022-12-10T12:43:21Z</time>
      </trkpt>
      <trkpt lat="43.67154" lon="3.82275">
        <ele>126.39978</ele>
        <time>2022-12-10T12:43:31Z</time>
      </trkpt>
      <trkpt lat="43.67169" lon="3.82253">
        <ele>127.311134</ele>
        <time>2022-12-10T12:43:41Z</time>
      </trkpt>
      <trkpt lat="43.67185" lon="3.82232">
        <ele>127.846191</ele>
        <time>2022-12-10T12:43:51Z</time>
      </trkpt>
      <trkpt lat="43.67199" lon="3.82212">
        <ele>128.55159</ele>
        <time>2022-12-10T12:44:01Z</time>
      </trkpt>
      <trkpt lat="43.67214" lon="3.82189">
        <ele>129.667786</ele>
        <time>2022-12-10T12:44:21Z</time>
      </trkpt>
      <trkpt lat="43.67218" lon="3.82169">
        <ele>130.439468</ele>
        <time>2022-12-10T12:44:41Z</time>
      </trkpt>
      <trkpt lat="43.67234" lon="3.82167">
        <ele>131.037064</ele>
        <time>2022-12-10T12:44:51Z</time>
      </trkpt>
      <trkpt lat="43.67245" lon="3.82162">
        <ele>131.151367</ele>
        <time>2022-12-10T12:48:31Z</time>
      </trkpt>
      <trkpt lat="43.67267" lon="3.82158">
        <ele>131.322449</ele>
        <time>2022-12-10T12:48:51Z</time>
      </trkpt>
      <trkpt lat="43.67287" lon="3.82153">
        <ele>131.54303</ele>
        <time>2022-12-10T12:49:01Z</time>
      </trkpt>
      <trkpt lat="43.67304" lon="3.8215">
        <ele>131.836578</ele>
        <time>2022-12-10T12:49:11Z</time>
      </trkpt>
      <trkpt lat="43.67319" lon="3.82146">
        <ele>132.060623</ele>
        <time>2022-12-10T12:49:21Z</time>
      </trkpt>
      <trkpt lat="43.67331" lon="3.82141">
        <ele>132.17778</ele>
        <time>2022-12-10T12:49:31Z</time>
      </trkpt>
      <trkpt lat="43.67342" lon="3.82135">
        <ele>132.265793</ele>
        <time>2022-12-10T12:49:41Z</time>
      </trkpt>
      <trkpt lat="43.67354" lon="3.82134">
        <ele>132.356949</ele>
        <time>2022-12-10T12:49:51Z</time>
      </trkpt>
      <trkpt lat="43.67365" lon="3.82132">
        <ele>132.55397</ele>
        <time>2022-12-10T12:50:01Z</time>
      </trkpt>
      <trkpt lat="43.67383" lon="3.82132">
        <ele>132.749756</ele>
        <time>2022-12-10T12:50:11Z</time>
      </trkpt>
      <trkpt lat="43.67407" lon="3.82134">
        <ele>133.170227</ele>
        <time>2022-12-10T12:50:21Z</time>
      </trkpt>
      <trkpt lat="43.67441" lon="3.82129">
        <ele>133.543945</ele>
        <time>2022-12-10T12:50:31Z</time>
      </trkpt>
      <trkpt lat="43.67479" lon="3.82124">
        <ele>133.907639</ele>
        <time>2022-12-10T12:50:41Z</time>
      </trkpt>
      <trkpt lat="43.67521" lon="3.82119">
        <ele>132.820862</ele>
        <time>2022-12-10T12:50:51Z</time>
      </trkpt>
      <trkpt lat="43.67553" lon="3.82119">
        <ele>128.886261</ele>
        <time>2022-12-10T12:51:01Z</time>
      </trkpt>
      <trkpt lat="43.67565" lon="3.82153">
        <ele>127.273926</ele>
        <time>2022-12-10T12:51:11Z</time>
      </trkpt>
      <trkpt lat="43.67583" lon="3.82174">
        <ele>127.239906</ele>
        <time>2022-12-10T12:51:21Z</time>
      </trkpt>
      <trkpt lat="43.67609" lon="3.82172">
        <ele>125.278481</ele>
        <time>2022-12-10T12:51:31Z</time>
      </trkpt>
      <trkpt lat="43.67634" lon="3.82169">
        <ele>123.69886</ele>
        <time>2022-12-10T12:51:41Z</time>
      </trkpt>
      <trkpt lat="43.67641" lon="3.82183">
        <ele>124.058144</ele>
        <time>2022-12-10T12:51:51Z</time>
      </trkpt>
      <trkpt lat="43.67645" lon="3.82191">
        <ele>124.440674</ele>
        <time>2022-12-10T12:52:01Z</time>
      </trkpt>
      <trkpt lat="43.67653" lon="3.82203">
        <ele>124.635254</ele>
        <time>2022-12-10T12:52:11Z</time>
      </trkpt>
      <trkpt lat="43.67668" lon="3.82212">
        <ele>125.142395</ele>
        <time>2022-12-10T12:52:31Z</time>
      </trkpt>
      <trkpt lat="43.6769" lon="3.82212">
        <ele>125.298622</ele>
        <time>2022-12-10T12:52:51Z</time>
      </trkpt>
      <trkpt lat="43.67713" lon="3.82228">
        <ele>125.829872</ele>
        <time>2022-12-10T12:53:01Z</time>
      </trkpt>
      <trkpt lat="43.67737" lon="3.8225">
        <ele>126.459938</ele>
        <time>2022-12-10T12:53:11Z</time>
      </trkpt>
      <trkpt lat="43.67769" lon="3.82276">
        <ele>127.012123</ele>
        <time>2022-12-10T12:53:21Z</time>
      </trkpt>
      <trkpt lat="43.67799" lon="3.82292">
        <ele>126.958656</ele>
        <time>2022-12-10T12:53:31Z</time>
      </trkpt>
      <trkpt lat="43.67828" lon="3.82312">
        <ele>126.79818</ele>
        <time>2022-12-10T12:53:41Z</time>
      </trkpt>
      <trkpt lat="43.67852" lon="3.82329">
        <ele>126.424812</ele>
        <time>2022-12-10T12:53:51Z</time>
      </trkpt>
      <trkpt lat="43.67879" lon="3.82341">
        <ele>125.978546</ele>
        <time>2022-12-10T12:54:01Z</time>
      </trkpt>
      <trkpt lat="43.679" lon="3.82337">
        <ele>125.272743</ele>
        <time>2022-12-10T12:54:11Z</time>
      </trkpt>
      <trkpt lat="43.67922" lon="3.82331">
        <ele>124.324928</ele>
        <time>2022-12-10T12:54:21Z</time>
      </trkpt>
      <trkpt lat="43.67922" lon="3.82309">
        <ele>123.364479</ele>
        <time>2022-12-10T12:54:31Z</time>
      </trkpt>
      <trkpt lat="43.67928" lon="3.82278">
        <ele>122.460327</ele>
        <time>2022-12-10T12:54:41Z</time>
      </trkpt>
      <trkpt lat="43.67933" lon="3.82247">
        <ele>120.883263</ele>
        <time>2022-12-10T12:54:51Z</time>
      </trkpt>
      <trkpt lat="43.67939" lon="3.82216">
        <ele>118.927742</ele>
        <time>2022-12-10T12:55:11Z</time>
      </trkpt>
      <trkpt lat="43.67946" lon="3.8219">
        <ele>117.610779</ele>
        <time>2022-12-10T12:55:31Z</time>
      </trkpt>
      <trkpt lat="43.67988" lon="3.82178">
        <ele>114.449638</ele>
        <time>2022-12-10T12:55:41Z</time>
      </trkpt>
      <trkpt lat="43.68048" lon="3.82184">
        <ele>108.801056</ele>
        <time>2022-12-10T12:55:51Z</time>
      </trkpt>
      <trkpt lat="43.68078" lon="3.82191">
        <ele>105.234184</ele>
        <time>2022-12-10T12:56:01Z</time>
      </trkpt>
      <trkpt lat="43.68105" lon="3.82188">
        <ele>103.661263</ele>
        <time>2022-12-10T12:56:11Z</time>
      </trkpt>
      <trkpt lat="43.68141" lon="3.8219">
        <ele>101.908913</ele>
        <time>2022-12-10T12:56:21Z</time>
      </trkpt>
      <trkpt lat="43.68179" lon="3.82195">
        <ele>100.230721</ele>
        <time>2022-12-10T12:56:31Z</time>
      </trkpt>
      <trkpt lat="43.68219" lon="3.82199">
        <ele>99.74865</ele>
        <time>2022-12-10T12:56:41Z</time>
      </trkpt>
      <trkpt lat="43.68261" lon="3.82206">
        <ele>99.472198</ele>
        <time>2022-12-10T12:56:51Z</time>
      </trkpt>
      <trkpt lat="43.68306" lon="3.82212">
        <ele>99.761559</ele>
        <time>2022-12-10T12:57:01Z</time>
      </trkpt>
      <trkpt lat="43.68346" lon="3.82219">
        <ele>100.279877</ele>
        <time>2022-12-10T12:57:11Z</time>
      </trkpt>
      <trkpt lat="43.68386" lon="3.82224">
        <ele>100.8256</ele>
        <time>2022-12-10T12:57:21Z</time>
      </trkpt>
      <trkpt lat="43.68422" lon="3.82235">
        <ele>101.179207</ele>
        <time>2022-12-10T12:57:31Z</time>
      </trkpt>
      <trkpt lat="43.68459" lon="3.82243">
        <ele>101.141685</ele>
        <time>2022-12-10T12:57:41Z</time>
      </trkpt>
      <trkpt lat="43.68493" lon="3.82252">
        <ele>100.60952</ele>
        <time>2022-12-10T12:57:51Z</time>
      </trkpt>
      <trkpt lat="43.68525" lon="3.82264">
        <ele>99.900513</ele>
        <time>2022-12-10T12:58:01Z</time>
      </trkpt>
      <trkpt lat="43.6856" lon="3.82278">
        <ele>99.67527</ele>
        <time>2022-12-10T12:58:11Z</time>
      </trkpt>
      <trkpt lat="43.68597" lon="3.82291">
        <ele>99.604836</ele>
        <time>2022-12-10T12:58:21Z</time>
      </trkpt>
      <trkpt lat="43.68633" lon="3.82304">
        <ele>99.935219</ele>
        <time>2022-12-10T12:58:31Z</time>
      </trkpt>
      <trkpt lat="43.68666" lon="3.82319">
        <ele>100.26873</ele>
        <time>2022-12-10T12:58:41Z</time>
      </trkpt>
      <trkpt lat="43.68696" lon="3.82338">
        <ele>100.398445</ele>
        <time>2022-12-10T12:58:51Z</time>
      </trkpt>
      <trkpt lat="43.68726" lon="3.82364">
        <ele>100.197937</ele>
        <time>2022-12-10T12:59:01Z</time>
      </trkpt>
      <trkpt lat="43.68748" lon="3.82395">
        <ele>99.445961</ele>
        <time>2022-12-10T12:59:11Z</time>
      </trkpt>
      <trkpt lat="43.68769" lon="3.82429">
        <ele>99.076141</ele>
        <time>2022-12-10T12:59:21Z</time>
      </trkpt>
      <trkpt lat="43.68792" lon="3.82455">
        <ele>99.634315</ele>
        <time>2022-12-10T12:59:31Z</time>
      </trkpt>
      <trkpt lat="43.68822" lon="3.82452">
        <ele>100.68573</ele>
        <time>2022-12-10T12:59:41Z</time>
      </trkpt>
      <trkpt lat="43.68853" lon="3.82439">
        <ele>101.333008</ele>
        <time>2022-12-10T13:00:01Z</time>
      </trkpt>
      <trkpt lat="43.68883" lon="3.8244">
        <ele>102.352699</ele>
        <time>2022-12-10T13:00:11Z</time>
      </trkpt>
      <trkpt lat="43.6891" lon="3.82441">
        <ele>103.623619</ele>
        <time>2022-12-10T13:00:21Z</time>
      </trkpt>
      <trkpt lat="43.68929" lon="3.82443">
        <ele>104.700989</ele>
        <time>2022-12-10T13:00:31Z</time>
      </trkpt>
      <trkpt lat="43.68944" lon="3.82451">
        <ele>105.712921</ele>
        <time>2022-12-10T13:00:41Z</time>
      </trkpt>
      <trkpt lat="43.68956" lon="3.82458">
        <ele>106.648094</ele>
        <time>2022-12-10T13:00:51Z</time>
      </trkpt>
      <trkpt lat="43.68967" lon="3.82465">
        <ele>107.415245</ele>
        <time>2022-12-10T13:01:01Z</time>
      </trkpt>
      <trkpt lat="43.68977" lon="3.8247">
        <ele>108.252663</ele>
        <time>2022-12-10T13:01:11Z</time>
      </trkpt>
      <trkpt lat="43.68987" lon="3.82475">
        <ele>108.898827</ele>
        <time>2022-12-10T13:01:21Z</time>
      </trkpt>
      <trkpt lat="43.68998" lon="3.82482">
        <ele>109.571289</ele>
        <time>2022-12-10T13:01:31Z</time>
      </trkpt>
      <trkpt lat="43.69011" lon="3.82493">
        <ele>110.184898</ele>
        <time>2022-12-10T13:01:41Z</time>
      </trkpt>
      <trkpt lat="43.6903" lon="3.82502">
        <ele>110.851563</ele>
        <time>2022-12-10T13:01:51Z</time>
      </trkpt>
      <trkpt lat="43.69053" lon="3.82516">
        <ele>111.773438</ele>
        <time>2022-12-10T13:02:01Z</time>
      </trkpt>
      <trkpt lat="43.69079" lon="3.82533">
        <ele>112.860664</ele>
        <time>2022-12-10T13:02:11Z</time>
      </trkpt>
      <trkpt lat="43.69107" lon="3.82551">
        <ele>113.48687</ele>
        <time>2022-12-10T13:02:21Z</time>
      </trkpt>
      <trkpt lat="43.69132" lon="3.82567">
        <ele>113.96167</ele>
        <time>2022-12-10T13:02:31Z</time>
      </trkpt>
      <trkpt lat="43.69152" lon="3.82578">
        <ele>114.08593</ele>
        <time>2022-12-10T13:02:41Z</time>
      </trkpt>
      <trkpt lat="43.69172" lon="3.82586">
        <ele>114.137825</ele>
        <time>2022-12-10T13:02:51Z</time>
      </trkpt>
      <trkpt lat="43.692" lon="3.82602">
        <ele>114.083031</ele>
        <time>2022-12-10T13:03:01Z</time>
      </trkpt>
      <trkpt lat="43.69235" lon="3.82624">
        <ele>113.697754</ele>
        <time>2022-12-10T13:03:11Z</time>
      </trkpt>
      <trkpt lat="43.69282" lon="3.82634">
        <ele>113.141518</ele>
        <time>2022-12-10T13:03:21Z</time>
      </trkpt>
      <trkpt lat="43.69304" lon="3.82661">
        <ele>112.540764</ele>
        <time>2022-12-10T13:03:31Z</time>
      </trkpt>
      <trkpt lat="43.69333" lon="3.8266">
        <ele>112.27951</ele>
        <time>2022-12-10T13:03:41Z</time>
      </trkpt>
      <trkpt lat="43.69368" lon="3.82671">
        <ele>112.360329</ele>
        <time>2022-12-10T13:03:51Z</time>
      </trkpt>
      <trkpt lat="43.69405" lon="3.82684">
        <ele>112.411293</ele>
        <time>2022-12-10T13:04:01Z</time>
      </trkpt>
      <trkpt lat="43.69443" lon="3.82692">
        <ele>112.174774</ele>
        <time>2022-12-10T13:04:11Z</time>
      </trkpt>
      <trkpt lat="43.69465" lon="3.82703">
        <ele>112.120811</ele>
        <time>2022-12-10T13:04:21Z</time>
      </trkpt>
      <trkpt lat="43.69476" lon="3.82719">
        <ele>111.668175</ele>
        <time>2022-12-10T13:04:31Z</time>
      </trkpt>
      <trkpt lat="43.69495" lon="3.82724">
        <ele>111.388832</ele>
        <time>2022-12-10T13:04:41Z</time>
      </trkpt>
      <trkpt lat="43.69522" lon="3.82713">
        <ele>111.479332</ele>
        <time>2022-12-10T13:04:51Z</time>
      </trkpt>
      <trkpt lat="43.69549" lon="3.82706">
        <ele>111.772133</ele>
        <time>2022-12-10T13:05:01Z</time>
      </trkpt>
      <trkpt lat="43.6957" lon="3.82697">
        <ele>112.345703</ele>
        <time>2022-12-10T13:05:11Z</time>
      </trkpt>
      <trkpt lat="43.6961" lon="3.82684">
        <ele>112.957848</ele>
        <time>2022-12-10T13:05:21Z</time>
      </trkpt>
      <trkpt lat="43.69639" lon="3.82681">
        <ele>113.817711</ele>
        <time>2022-12-10T13:05:31Z</time>
      </trkpt>
      <trkpt lat="43.69661" lon="3.82675">
        <ele>114.309654</ele>
        <time>2022-12-10T13:05:41Z</time>
      </trkpt>
      <trkpt lat="43.69685" lon="3.82668">
        <ele>114.849052</ele>
        <time>2022-12-10T13:05:51Z</time>
      </trkpt>
      <trkpt lat="43.69707" lon="3.82661">
        <ele>115.093346</ele>
        <time>2022-12-10T13:06:01Z</time>
      </trkpt>
      <trkpt lat="43.69729" lon="3.82654">
        <ele>115.347054</ele>
        <time>2022-12-10T13:06:11Z</time>
      </trkpt>
      <trkpt lat="43.69749" lon="3.82647">
        <ele>115.714539</ele>
        <time>2022-12-10T13:06:21Z</time>
      </trkpt>
      <trkpt lat="43.69769" lon="3.82637">
        <ele>116.123711</ele>
        <time>2022-12-10T13:06:31Z</time>
      </trkpt>
      <trkpt lat="43.69789" lon="3.82623">
        <ele>116.577637</ele>
        <time>2022-12-10T13:06:41Z</time>
      </trkpt>
      <trkpt lat="43.69814" lon="3.8261">
        <ele>116.81617</ele>
        <time>2022-12-10T13:06:51Z</time>
      </trkpt>
      <trkpt lat="43.69839" lon="3.82597">
        <ele>116.736412</ele>
        <time>2022-12-10T13:07:01Z</time>
      </trkpt>
      <trkpt lat="43.69865" lon="3.82582">
        <ele>116.613983</ele>
        <time>2022-12-10T13:07:11Z</time>
      </trkpt>
      <trkpt lat="43.69894" lon="3.82572">
        <ele>116.36557</ele>
        <time>2022-12-10T13:07:21Z</time>
      </trkpt>
      <trkpt lat="43.6992" lon="3.82572">
        <ele>115.723633</ele>
        <time>2022-12-10T13:07:31Z</time>
      </trkpt>
      <trkpt lat="43.69935" lon="3.82599">
        <ele>114.871178</ele>
        <time>2022-12-10T13:07:41Z</time>
      </trkpt>
      <trkpt lat="43.69944" lon="3.82635">
        <ele>114.469635</ele>
        <time>2022-12-10T13:07:51Z</time>
      </trkpt>
      <trkpt lat="43.69961" lon="3.82667">
        <ele>114.744469</ele>
        <time>2022-12-10T13:08:01Z</time>
      </trkpt>
      <trkpt lat="43.69969" lon="3.82695">
        <ele>114.955658</ele>
        <time>2022-12-10T13:08:11Z</time>
      </trkpt>
      <trkpt lat="43.69967" lon="3.82718">
        <ele>115.401237</ele>
        <time>2022-12-10T13:08:21Z</time>
      </trkpt>
      <trkpt lat="43.69972" lon="3.82748">
        <ele>115.897041</ele>
        <time>2022-12-10T13:08:31Z</time>
      </trkpt>
      <trkpt lat="43.69978" lon="3.8278">
        <ele>116.512184</ele>
        <time>2022-12-10T13:08:41Z</time>
      </trkpt>
      <trkpt lat="43.69989" lon="3.82813">
        <ele>117.278076</ele>
        <time>2022-12-10T13:08:51Z</time>
      </trkpt>
      <trkpt lat="43.70002" lon="3.82839">
        <ele>118.027496</ele>
        <time>2022-12-10T13:09:01Z</time>
      </trkpt>
      <trkpt lat="43.70012" lon="3.82868">
        <ele>118.986946</ele>
        <time>2022-12-10T13:09:11Z</time>
      </trkpt>
      <trkpt lat="43.7002" lon="3.82903">
        <ele>119.945152</ele>
        <time>2022-12-10T13:09:21Z</time>
      </trkpt>
      <trkpt lat="43.70029" lon="3.82944">
        <ele>120.06852</ele>
        <time>2022-12-10T13:09:31Z</time>
      </trkpt>
      <trkpt lat="43.70042" lon="3.82993">
        <ele>119.932945</ele>
        <time>2022-12-10T13:09:41Z</time>
      </trkpt>
      <trkpt lat="43.70049" lon="3.8302">
        <ele>119.476646</ele>
        <time>2022-12-10T13:09:51Z</time>
      </trkpt>
      <trkpt lat="43.70054" lon="3.83049">
        <ele>119.189453</ele>
        <time>2022-12-10T13:10:01Z</time>
      </trkpt>
      <trkpt lat="43.70054" lon="3.83082">
        <ele>118.755699</ele>
        <time>2022-12-10T13:10:11Z</time>
      </trkpt>
      <trkpt lat="43.70051" lon="3.83117">
        <ele>118.241211</ele>
        <time>2022-12-10T13:10:21Z</time>
      </trkpt>
      <trkpt lat="43.7006" lon="3.83149">
        <ele>117.822754</ele>
        <time>2022-12-10T13:10:31Z</time>
      </trkpt>
      <trkpt lat="43.70059" lon="3.83185">
        <ele>117.591637</ele>
        <time>2022-12-10T13:10:41Z</time>
      </trkpt>
      <trkpt lat="43.70064" lon="3.83223">
        <ele>117.648598</ele>
        <time>2022-12-10T13:10:51Z</time>
      </trkpt>
      <trkpt lat="43.70066" lon="3.8326">
        <ele>117.913971</ele>
        <time>2022-12-10T13:11:01Z</time>
      </trkpt>
      <trkpt lat="43.70067" lon="3.83294">
        <ele>118.312286</ele>
        <time>2022-12-10T13:11:11Z</time>
      </trkpt>
      <trkpt lat="43.70069" lon="3.8333">
        <ele>118.344604</ele>
        <time>2022-12-10T13:11:21Z</time>
      </trkpt>
      <trkpt lat="43.70066" lon="3.83369">
        <ele>118.312622</ele>
        <time>2022-12-10T13:11:31Z</time>
      </trkpt>
      <trkpt lat="43.70048" lon="3.83401">
        <ele>118.161377</ele>
        <time>2022-12-10T13:11:41Z</time>
      </trkpt>
      <trkpt lat="43.7005" lon="3.83442">
        <ele>118.387138</ele>
        <time>2022-12-10T13:11:51Z</time>
      </trkpt>
      <trkpt lat="43.70048" lon="3.8348">
        <ele>119.098701</ele>
        <time>2022-12-10T13:12:01Z</time>
      </trkpt>
      <trkpt lat="43.70046" lon="3.83513">
        <ele>120.037254</ele>
        <time>2022-12-10T13:12:11Z</time>
      </trkpt>
      <trkpt lat="43.70044" lon="3.83536">
        <ele>121.041595</ele>
        <time>2022-12-10T13:12:21Z</time>
      </trkpt>
      <trkpt lat="43.70043" lon="3.83558">
        <ele>121.786438</ele>
        <time>2022-12-10T13:12:31Z</time>
      </trkpt>
      <trkpt lat="43.70046" lon="3.83583">
        <ele>122.625816</ele>
        <time>2022-12-10T13:12:41Z</time>
      </trkpt>
      <trkpt lat="43.70048" lon="3.8361">
        <ele>123.431969</ele>
        <time>2022-12-10T13:12:51Z</time>
      </trkpt>
      <trkpt lat="43.70051" lon="3.83633">
        <ele>124.216797</ele>
        <time>2022-12-10T13:13:01Z</time>
      </trkpt>
      <trkpt lat="43.70043" lon="3.83652">
        <ele>124.80661</ele>
        <time>2022-12-10T13:13:11Z</time>
      </trkpt>
      <trkpt lat="43.70024" lon="3.83663">
        <ele>124.879494</ele>
        <time>2022-12-10T13:13:21Z</time>
      </trkpt>
      <trkpt lat="43.70012" lon="3.83694">
        <ele>125.342705</ele>
        <time>2022-12-10T13:13:31Z</time>
      </trkpt>
      <trkpt lat="43.70015" lon="3.83734">
        <ele>126.132408</ele>
        <time>2022-12-10T13:13:41Z</time>
      </trkpt>
      <trkpt lat="43.70018" lon="3.83772">
        <ele>126.701988</ele>
        <time>2022-12-10T13:13:51Z</time>
      </trkpt>
      <trkpt lat="43.70023" lon="3.8381">
        <ele>126.642944</ele>
        <time>2022-12-10T13:14:01Z</time>
      </trkpt>
      <trkpt lat="43.70035" lon="3.83846">
        <ele>126.124474</ele>
        <time>2022-12-10T13:14:11Z</time>
      </trkpt>
      <trkpt lat="43.70048" lon="3.83876">
        <ele>125.881538</ele>
        <time>2022-12-10T13:14:21Z</time>
      </trkpt>
      <trkpt lat="43.70057" lon="3.83904">
        <ele>125.626457</ele>
        <time>2022-12-10T13:14:31Z</time>
      </trkpt>
      <trkpt lat="43.7006" lon="3.83935">
        <ele>125.06559</ele>
        <time>2022-12-10T13:14:41Z</time>
      </trkpt>
      <trkpt lat="43.70061" lon="3.83974">
        <ele>123.979897</ele>
        <time>2022-12-10T13:14:51Z</time>
      </trkpt>
      <trkpt lat="43.70077" lon="3.83981">
        <ele>122.960365</ele>
        <time>2022-12-10T13:15:01Z</time>
      </trkpt>
      <trkpt lat="43.70097" lon="3.83971">
        <ele>122.900002</ele>
        <time>2022-12-10T13:15:11Z</time>
      </trkpt>
      <trkpt lat="43.70128" lon="3.83969">
        <ele>123.784729</ele>
        <time>2022-12-10T13:15:21Z</time>
      </trkpt>
      <trkpt lat="43.70134" lon="3.8396">
        <ele>124.51075</ele>
        <time>2022-12-10T13:15:31Z</time>
      </trkpt>
      <trkpt lat="43.70108" lon="3.83969">
        <ele>124.146461</ele>
        <time>2022-12-10T13:16:21Z</time>
      </trkpt>
      <trkpt lat="43.70087" lon="3.83979">
        <ele>123.318512</ele>
        <time>2022-12-10T13:16:41Z</time>
      </trkpt>
      <trkpt lat="43.70064" lon="3.83965">
        <ele>122.829346</ele>
        <time>2022-12-10T13:16:51Z</time>
      </trkpt>
      <trkpt lat="43.70044" lon="3.83965">
        <ele>123.698082</ele>
        <time>2022-12-10T13:17:01Z</time>
      </trkpt>
      <trkpt lat="43.70033" lon="3.83957">
        <ele>124.034912</ele>
        <time>2022-12-10T13:17:11Z</time>
      </trkpt>
      <trkpt lat="43.70022" lon="3.83958">
        <ele>124.321373</ele>
        <time>2022-12-10T13:17:41Z</time>
      </trkpt>
      <trkpt lat="43.70012" lon="3.83938">
        <ele>124.610786</ele>
        <time>2022-12-10T13:18:01Z</time>
      </trkpt>
      <trkpt lat="43.69994" lon="3.8393">
        <ele>125.221642</ele>
        <time>2022-12-10T13:18:11Z</time>
      </trkpt>
      <trkpt lat="43.69984" lon="3.83947">
        <ele>125.25769</ele>
        <time>2022-12-10T13:18:21Z</time>
      </trkpt>
      <trkpt lat="43.6998" lon="3.83959">
        <ele>125.020233</ele>
        <time>2022-12-10T13:18:31Z</time>
      </trkpt>
      <trkpt lat="43.69957" lon="3.83978">
        <ele>124.835976</ele>
        <time>2022-12-10T13:18:41Z</time>
      </trkpt>
      <trkpt lat="43.69928" lon="3.83995">
        <ele>124.363983</ele>
        <time>2022-12-10T13:18:51Z</time>
      </trkpt>
      <trkpt lat="43.69902" lon="3.84005">
        <ele>123.540703</ele>
        <time>2022-12-10T13:19:01Z</time>
      </trkpt>
      <trkpt lat="43.69885" lon="3.84009">
        <ele>123.026039</ele>
        <time>2022-12-10T13:19:11Z</time>
      </trkpt>
      <trkpt lat="43.69868" lon="3.84008">
        <ele>122.826622</ele>
        <time>2022-12-10T13:19:21Z</time>
      </trkpt>
      <trkpt lat="43.69852" lon="3.8402">
        <ele>122.257019</ele>
        <time>2022-12-10T13:19:31Z</time>
      </trkpt>
      <trkpt lat="43.69839" lon="3.84021">
        <ele>121.648415</ele>
        <time>2022-12-10T13:19:51Z</time>
      </trkpt>
      <trkpt lat="43.69823" lon="3.84031">
        <ele>121.032967</ele>
        <time>2022-12-10T13:20:01Z</time>
      </trkpt>
      <trkpt lat="43.69805" lon="3.84056">
        <ele>118.986481</ele>
        <time>2022-12-10T13:20:11Z</time>
      </trkpt>
      <trkpt lat="43.69782" lon="3.84065">
        <ele>116.779991</ele>
        <time>2022-12-10T13:20:21Z</time>
      </trkpt>
      <trkpt lat="43.69769" lon="3.84065">
        <ele>116.286835</ele>
        <time>2022-12-10T13:20:31Z</time>
      </trkpt>
      <trkpt lat="43.6975" lon="3.84067">
        <ele>115.792511</ele>
        <time>2022-12-10T13:20:41Z</time>
      </trkpt>
      <trkpt lat="43.69725" lon="3.84072">
        <ele>115.477928</ele>
        <time>2022-12-10T13:20:51Z</time>
      </trkpt>
      <trkpt lat="43.69706" lon="3.84062">
        <ele>115.035919</ele>
        <time>2022-12-10T13:21:01Z</time>
      </trkpt>
      <trkpt lat="43.69692" lon="3.84055">
        <ele>115.221153</ele>
        <time>2022-12-10T13:21:11Z</time>
      </trkpt>
      <trkpt lat="43.69662" lon="3.8405">
        <ele>114.954529</ele>
        <time>2022-12-10T13:21:21Z</time>
      </trkpt>
      <trkpt lat="43.69636" lon="3.84055">
        <ele>113.827965</ele>
        <time>2022-12-10T13:21:31Z</time>
      </trkpt>
      <trkpt lat="43.69621" lon="3.84059">
        <ele>113.05484</ele>
        <time>2022-12-10T13:21:41Z</time>
      </trkpt>
      <trkpt lat="43.69607" lon="3.84064">
        <ele>112.585938</ele>
        <time>2022-12-10T13:21:51Z</time>
      </trkpt>
      <trkpt lat="43.69585" lon="3.84067">
        <ele>112.067223</ele>
        <time>2022-12-10T13:22:01Z</time>
      </trkpt>
      <trkpt lat="43.69561" lon="3.84051">
        <ele>110.944008</ele>
        <time>2022-12-10T13:22:11Z</time>
      </trkpt>
      <trkpt lat="43.69533" lon="3.84035">
        <ele>109.711914</ele>
        <time>2022-12-10T13:22:21Z</time>
      </trkpt>
      <trkpt lat="43.69499" lon="3.8403">
        <ele>108.441856</ele>
        <time>2022-12-10T13:22:31Z</time>
      </trkpt>
      <trkpt lat="43.69462" lon="3.84036">
        <ele>108.101006</ele>
        <time>2022-12-10T13:22:41Z</time>
      </trkpt>
      <trkpt lat="43.69429" lon="3.84008">
        <ele>107.722282</ele>
        <time>2022-12-10T13:22:51Z</time>
      </trkpt>
      <trkpt lat="43.69397" lon="3.84">
        <ele>107.852654</ele>
        <time>2022-12-10T13:23:01Z</time>
      </trkpt>
      <trkpt lat="43.69365" lon="3.83972">
        <ele>108.606873</ele>
        <time>2022-12-10T13:23:11Z</time>
      </trkpt>
      <trkpt lat="43.69339" lon="3.83957">
        <ele>108.845619</ele>
        <time>2022-12-10T13:23:21Z</time>
      </trkpt>
      <trkpt lat="43.69319" lon="3.83941">
        <ele>108.335594</ele>
        <time>2022-12-10T13:23:31Z</time>
      </trkpt>
      <trkpt lat="43.69297" lon="3.83921">
        <ele>107.667885</ele>
        <time>2022-12-10T13:23:41Z</time>
      </trkpt>
      <trkpt lat="43.69284" lon="3.83903">
        <ele>106.803253</ele>
        <time>2022-12-10T13:23:51Z</time>
      </trkpt>
      <trkpt lat="43.69285" lon="3.83892">
        <ele>105.842369</ele>
        <time>2022-12-10T13:24:01Z</time>
      </trkpt>
      <trkpt lat="43.69295" lon="3.83889">
        <ele>105.412109</ele>
        <time>2022-12-10T13:24:11Z</time>
      </trkpt>
      <trkpt lat="43.69304" lon="3.83878">
        <ele>104.645348</ele>
        <time>2022-12-10T13:24:21Z</time>
      </trkpt>
      <trkpt lat="43.69305" lon="3.83855">
        <ele>104.34481</ele>
        <time>2022-12-10T13:24:41Z</time>
      </trkpt>
      <trkpt lat="43.69304" lon="3.83836">
        <ele>102.447426</ele>
        <time>2022-12-10T13:24:51Z</time>
      </trkpt>
      <trkpt lat="43.693" lon="3.83813">
        <ele>100.842674</ele>
        <time>2022-12-10T13:25:01Z</time>
      </trkpt>
      <trkpt lat="43.693" lon="3.83805">
        <ele>99.967041</ele>
        <time>2022-12-10T13:25:11Z</time>
      </trkpt>
      <trkpt lat="43.69303" lon="3.83785">
        <ele>99.099449</ele>
        <time>2022-12-10T13:25:21Z</time>
      </trkpt>
      <trkpt lat="43.69289" lon="3.83793">
        <ele>98.575012</ele>
        <time>2022-12-10T13:26:01Z</time>
      </trkpt>
      <trkpt lat="43.6928" lon="3.8379">
        <ele>98.317421</ele>
        <time>2022-12-10T13:26:21Z</time>
      </trkpt>
      <trkpt lat="43.69271" lon="3.8378">
        <ele>97.585945</ele>
        <time>2022-12-10T13:26:41Z</time>
      </trkpt>
      <trkpt lat="43.69264" lon="3.83764">
        <ele>96.766998</ele>
        <time>2022-12-10T13:27:01Z</time>
      </trkpt>
      <trkpt lat="43.69252" lon="3.83746">
        <ele>95.325081</ele>
        <time>2022-12-10T13:27:11Z</time>
      </trkpt>
      <trkpt lat="43.69238" lon="3.83742">
        <ele>94.247383</ele>
        <time>2022-12-10T13:27:21Z</time>
      </trkpt>
      <trkpt lat="43.69226" lon="3.83736">
        <ele>93.898048</ele>
        <time>2022-12-10T13:27:31Z</time>
      </trkpt>
      <trkpt lat="43.69231" lon="3.83714">
        <ele>92.992119</ele>
        <time>2022-12-10T13:27:41Z</time>
      </trkpt>
      <trkpt lat="43.69226" lon="3.8369">
        <ele>91.773293</ele>
        <time>2022-12-10T13:27:51Z</time>
      </trkpt>
      <trkpt lat="43.69216" lon="3.83662">
        <ele>91.366486</ele>
        <time>2022-12-10T13:28:01Z</time>
      </trkpt>
      <trkpt lat="43.69212" lon="3.83631">
        <ele>91.416786</ele>
        <time>2022-12-10T13:28:11Z</time>
      </trkpt>
      <trkpt lat="43.69215" lon="3.83596">
        <ele>91.697533</ele>
        <time>2022-12-10T13:28:21Z</time>
      </trkpt>
      <trkpt lat="43.69225" lon="3.83563">
        <ele>91.738319</ele>
        <time>2022-12-10T13:29:21Z</time>
      </trkpt>
      <trkpt lat="43.69229" lon="3.83537">
        <ele>91.722878</ele>
        <time>2022-12-10T13:29:41Z</time>
      </trkpt>
      <trkpt lat="43.69227" lon="3.83512">
        <ele>91.961617</ele>
        <time>2022-12-10T13:29:51Z</time>
      </trkpt>
      <trkpt lat="43.69231" lon="3.83491">
        <ele>92.483276</ele>
        <time>2022-12-10T13:30:01Z</time>
      </trkpt>
      <trkpt lat="43.69245" lon="3.83482">
        <ele>91.544884</ele>
        <time>2022-12-10T13:30:11Z</time>
      </trkpt>
      <trkpt lat="43.69262" lon="3.83484">
        <ele>90.180054</ele>
        <time>2022-12-10T13:30:21Z</time>
      </trkpt>
      <trkpt lat="43.69275" lon="3.83483">
        <ele>89</ele>
        <time>2022-12-10T13:30:31Z</time>
      </trkpt>
      <trkpt lat="43.69289" lon="3.83482">
        <ele>89</ele>
        <time>2022-12-10T13:30:41Z</time>
      </trkpt>
      <trkpt lat="43.69301" lon="3.83472">
        <ele>89</ele>
        <time>2022-12-10T13:30:51Z</time>
      </trkpt>
      <trkpt lat="43.69291" lon="3.83454">
        <ele>89</ele>
        <time>2022-12-10T13:31:01Z</time>
      </trkpt>
      <trkpt lat="43.69275" lon="3.83443">
        <ele>89</ele>
        <time>2022-12-10T13:31:11Z</time>
      </trkpt>
      <trkpt lat="43.6928" lon="3.83416">
        <ele>89</ele>
        <time>2022-12-10T13:31:21Z</time>
      </trkpt>
      <trkpt lat="43.69301" lon="3.83399">
        <ele>89.196693</ele>
        <time>2022-12-10T13:31:31Z</time>
      </trkpt>
      <trkpt lat="43.6932" lon="3.83382">
        <ele>89.46981</ele>
        <time>2022-12-10T13:31:41Z</time>
      </trkpt>
      <trkpt lat="43.69346" lon="3.83369">
        <ele>89.725548</ele>
        <time>2022-12-10T13:31:51Z</time>
      </trkpt>
      <trkpt lat="43.69378" lon="3.83356">
        <ele>90.719513</ele>
        <time>2022-12-10T13:32:01Z</time>
      </trkpt>
      <trkpt lat="43.69384" lon="3.83328">
        <ele>91.779785</ele>
        <time>2022-12-10T13:32:11Z</time>
      </trkpt>
      <trkpt lat="43.69356" lon="3.83317">
        <ele>91.609779</ele>
        <time>2022-12-10T13:32:21Z</time>
      </trkpt>
      <trkpt lat="43.69326" lon="3.833">
        <ele>91.020752</ele>
        <time>2022-12-10T13:32:31Z</time>
      </trkpt>
      <trkpt lat="43.69291" lon="3.83296">
        <ele>91.066948</ele>
        <time>2022-12-10T13:32:41Z</time>
      </trkpt>
      <trkpt lat="43.69259" lon="3.8331">
        <ele>91.353233</ele>
        <time>2022-12-10T13:32:51Z</time>
      </trkpt>
      <trkpt lat="43.69227" lon="3.83285">
        <ele>93.485649</ele>
        <time>2022-12-10T13:33:01Z</time>
      </trkpt>
      <trkpt lat="43.69216" lon="3.83247">
        <ele>96.0028</ele>
        <time>2022-12-10T13:33:11Z</time>
      </trkpt>
      <trkpt lat="43.69223" lon="3.83207">
        <ele>96.529152</ele>
        <time>2022-12-10T13:33:21Z</time>
      </trkpt>
      <trkpt lat="43.69235" lon="3.83185">
        <ele>96.579254</ele>
        <time>2022-12-10T13:33:31Z</time>
      </trkpt>
      <trkpt lat="43.69257" lon="3.83167">
        <ele>96.044739</ele>
        <time>2022-12-10T13:33:41Z</time>
      </trkpt>
      <trkpt lat="43.6927" lon="3.83139">
        <ele>95.77179</ele>
        <time>2022-12-10T13:33:51Z</time>
      </trkpt>
      <trkpt lat="43.69263" lon="3.83109">
        <ele>96.526451</ele>
        <time>2022-12-10T13:34:01Z</time>
      </trkpt>
      <trkpt lat="43.69253" lon="3.83077">
        <ele>97.651711</ele>
        <time>2022-12-10T13:34:11Z</time>
      </trkpt>
      <trkpt lat="43.69226" lon="3.83052">
        <ele>98.950035</ele>
        <time>2022-12-10T13:34:21Z</time>
      </trkpt>
      <trkpt lat="43.69206" lon="3.83022">
        <ele>100.137695</ele>
        <time>2022-12-10T13:34:31Z</time>
      </trkpt>
      <trkpt lat="43.69189" lon="3.83001">
        <ele>100.857384</ele>
        <time>2022-12-10T13:34:41Z</time>
      </trkpt>
      <trkpt lat="43.69171" lon="3.82985">
        <ele>101.591942</ele>
        <time>2022-12-10T13:34:51Z</time>
      </trkpt>
      <trkpt lat="43.69158" lon="3.82964">
        <ele>102.150749</ele>
        <time>2022-12-10T13:35:01Z</time>
      </trkpt>
      <trkpt lat="43.69144" lon="3.8295">
        <ele>102.531151</ele>
        <time>2022-12-10T13:35:11Z</time>
      </trkpt>
      <trkpt lat="43.69127" lon="3.82943">
        <ele>102.835999</ele>
        <time>2022-12-10T13:35:21Z</time>
      </trkpt>
      <trkpt lat="43.69126" lon="3.82916">
        <ele>103.183083</ele>
        <time>2022-12-10T13:35:31Z</time>
      </trkpt>
      <trkpt lat="43.69144" lon="3.829">
        <ele>103.427483</ele>
        <time>2022-12-10T13:35:41Z</time>
      </trkpt>
      <trkpt lat="43.69161" lon="3.82882">
        <ele>103.624382</ele>
        <time>2022-12-10T13:35:51Z</time>
      </trkpt>
      <trkpt lat="43.69177" lon="3.82865">
        <ele>103.987404</ele>
        <time>2022-12-10T13:36:01Z</time>
      </trkpt>
      <trkpt lat="43.69196" lon="3.82845">
        <ele>104.738884</ele>
        <time>2022-12-10T13:36:11Z</time>
      </trkpt>
      <trkpt lat="43.69213" lon="3.8283">
        <ele>105.710716</ele>
        <time>2022-12-10T13:36:21Z</time>
      </trkpt>
      <trkpt lat="43.69205" lon="3.82833">
        <ele>106.026154</ele>
        <time>2022-12-10T13:36:31Z</time>
      </trkpt>
      <trkpt lat="43.69192" lon="3.82812">
        <ele>105.979523</ele>
        <time>2022-12-10T13:36:41Z</time>
      </trkpt>
      <trkpt lat="43.69181" lon="3.82785">
        <ele>107.018044</ele>
        <time>2022-12-10T13:36:51Z</time>
      </trkpt>
      <trkpt lat="43.69167" lon="3.82781">
        <ele>107.493248</ele>
        <time>2022-12-10T13:37:01Z</time>
      </trkpt>
      <trkpt lat="43.69138" lon="3.82783">
        <ele>107.294006</ele>
        <time>2022-12-10T13:37:11Z</time>
      </trkpt>
      <trkpt lat="43.69104" lon="3.82787">
        <ele>106.841164</ele>
        <time>2022-12-10T13:37:21Z</time>
      </trkpt>
      <trkpt lat="43.6907" lon="3.82789">
        <ele>106.220543</ele>
        <time>2022-12-10T13:37:31Z</time>
      </trkpt>
      <trkpt lat="43.69033" lon="3.82794">
        <ele>105.580238</ele>
        <time>2022-12-10T13:37:41Z</time>
      </trkpt>
      <trkpt lat="43.68992" lon="3.82799">
        <ele>104.863525</ele>
        <time>2022-12-10T13:37:51Z</time>
      </trkpt>
      <trkpt lat="43.68953" lon="3.82797">
        <ele>103.970375</ele>
        <time>2022-12-10T13:38:01Z</time>
      </trkpt>
      <trkpt lat="43.68916" lon="3.82789">
        <ele>103.711861</ele>
        <time>2022-12-10T13:38:11Z</time>
      </trkpt>
      <trkpt lat="43.68883" lon="3.82799">
        <ele>103.315727</ele>
        <time>2022-12-10T13:38:21Z</time>
      </trkpt>
      <trkpt lat="43.68844" lon="3.82812">
        <ele>103.086922</ele>
        <time>2022-12-10T13:38:31Z</time>
      </trkpt>
      <trkpt lat="43.68808" lon="3.82807">
        <ele>103.736664</ele>
        <time>2022-12-10T13:38:41Z</time>
      </trkpt>
      <trkpt lat="43.68772" lon="3.82809">
        <ele>104.676605</ele>
        <time>2022-12-10T13:38:51Z</time>
      </trkpt>
      <trkpt lat="43.68737" lon="3.82813">
        <ele>105.172035</ele>
        <time>2022-12-10T13:39:01Z</time>
      </trkpt>
      <trkpt lat="43.68701" lon="3.82814">
        <ele>105.214195</ele>
        <time>2022-12-10T13:39:11Z</time>
      </trkpt>
      <trkpt lat="43.68667" lon="3.82823">
        <ele>103.755859</ele>
        <time>2022-12-10T13:39:21Z</time>
      </trkpt>
      <trkpt lat="43.68633" lon="3.82832">
        <ele>102.025948</ele>
        <time>2022-12-10T13:39:31Z</time>
      </trkpt>
      <trkpt lat="43.6861" lon="3.82842">
        <ele>99.825279</ele>
        <time>2022-12-10T13:39:41Z</time>
      </trkpt>
      <trkpt lat="43.68597" lon="3.82848">
        <ele>98.991302</ele>
        <time>2022-12-10T13:40:01Z</time>
      </trkpt>
      <trkpt lat="43.68575" lon="3.82853">
        <ele>97.626831</ele>
        <time>2022-12-10T13:40:21Z</time>
      </trkpt>
      <trkpt lat="43.6856" lon="3.82879">
        <ele>96.152855</ele>
        <time>2022-12-10T13:40:31Z</time>
      </trkpt>
      <trkpt lat="43.68531" lon="3.82901">
        <ele>94.941566</ele>
        <time>2022-12-10T13:40:41Z</time>
      </trkpt>
      <trkpt lat="43.68509" lon="3.82912">
        <ele>93.245934</ele>
        <time>2022-12-10T13:40:51Z</time>
      </trkpt>
      <trkpt lat="43.68491" lon="3.82924">
        <ele>92.03717</ele>
        <time>2022-12-10T13:41:01Z</time>
      </trkpt>
      <trkpt lat="43.68475" lon="3.82928">
        <ele>91.579315</ele>
        <time>2022-12-10T13:41:11Z</time>
      </trkpt>
      <trkpt lat="43.68454" lon="3.82939">
        <ele>90.984474</ele>
        <time>2022-12-10T13:41:21Z</time>
      </trkpt>
      <trkpt lat="43.68443" lon="3.82954">
        <ele>90.551971</ele>
        <time>2022-12-10T13:41:31Z</time>
      </trkpt>
      <trkpt lat="43.68429" lon="3.82974">
        <ele>90.39167</ele>
        <time>2022-12-10T13:41:41Z</time>
      </trkpt>
      <trkpt lat="43.68418" lon="3.82993">
        <ele>91.105797</ele>
        <time>2022-12-10T13:41:51Z</time>
      </trkpt>
      <trkpt lat="43.68414" lon="3.83017">
        <ele>91.690086</ele>
        <time>2022-12-10T13:42:01Z</time>
      </trkpt>
      <trkpt lat="43.68413" lon="3.83044">
        <ele>92.024071</ele>
        <time>2022-12-10T13:42:11Z</time>
      </trkpt>
      <trkpt lat="43.68398" lon="3.83076">
        <ele>92.609253</ele>
        <time>2022-12-10T13:42:21Z</time>
      </trkpt>
      <trkpt lat="43.68383" lon="3.83108">
        <ele>93.087791</ele>
        <time>2022-12-10T13:42:31Z</time>
      </trkpt>
      <trkpt lat="43.68374" lon="3.83143">
        <ele>93.223976</ele>
        <time>2022-12-10T13:42:51Z</time>
      </trkpt>
      <trkpt lat="43.68366" lon="3.83187">
        <ele>92.695702</ele>
        <time>2022-12-10T13:43:11Z</time>
      </trkpt>
      <trkpt lat="43.68357" lon="3.83227">
        <ele>91.572914</ele>
        <time>2022-12-10T13:43:21Z</time>
      </trkpt>
      <trkpt lat="43.68343" lon="3.83267">
        <ele>90.999702</ele>
        <time>2022-12-10T13:43:31Z</time>
      </trkpt>
      <trkpt lat="43.68331" lon="3.83302">
        <ele>90.511024</ele>
        <time>2022-12-10T13:43:41Z</time>
      </trkpt>
      <trkpt lat="43.68321" lon="3.83333">
        <ele>89.883583</ele>
        <time>2022-12-10T13:43:51Z</time>
      </trkpt>
      <trkpt lat="43.68311" lon="3.83344">
        <ele>89.391083</ele>
        <time>2022-12-10T13:44:01Z</time>
      </trkpt>
      <trkpt lat="43.68317" lon="3.83359">
        <ele>89.099304</ele>
        <time>2022-12-10T13:44:41Z</time>
      </trkpt>
      <trkpt lat="43.68333" lon="3.83357">
        <ele>88.955933</ele>
        <time>2022-12-10T13:45:21Z</time>
      </trkpt>
      <trkpt lat="43.68336" lon="3.83341">
        <ele>89.105965</ele>
        <time>2022-12-10T13:45:41Z</time>
      </trkpt>
      <trkpt lat="43.68343" lon="3.83327">
        <ele>89.376137</ele>
        <time>2022-12-10T13:45:51Z</time>
      </trkpt>
      <trkpt lat="43.6835" lon="3.83308">
        <ele>89.696045</ele>
        <time>2022-12-10T13:46:01Z</time>
      </trkpt>
      <trkpt lat="43.68364" lon="3.83295">
        <ele>89.870018</ele>
        <time>2022-12-10T13:46:11Z</time>
      </trkpt>
      <trkpt lat="43.68378" lon="3.83249">
        <ele>90.477104</ele>
        <time>2022-12-10T13:46:41Z</time>
      </trkpt>
      <trkpt lat="43.68375" lon="3.83219">
        <ele>90.982399</ele>
        <time>2022-12-10T13:47:01Z</time>
      </trkpt>
      <trkpt lat="43.68366" lon="3.83199">
        <ele>91.371155</ele>
        <time>2022-12-10T13:47:11Z</time>
      </trkpt>
      <trkpt lat="43.68366" lon="3.83173">
        <ele>92.085449</ele>
        <time>2022-12-10T13:47:21Z</time>
      </trkpt>
      <trkpt lat="43.68373" lon="3.8315">
        <ele>92.662117</ele>
        <time>2022-12-10T13:47:41Z</time>
      </trkpt>
      <trkpt lat="43.68379" lon="3.8313">
        <ele>93.225685</ele>
        <time>2022-12-10T13:48:01Z</time>
      </trkpt>
      <trkpt lat="43.68372" lon="3.83149">
        <ele>93.165047</ele>
        <time>2022-12-10T13:48:41Z</time>
      </trkpt>
      <trkpt lat="43.68362" lon="3.83185">
        <ele>92.652672</ele>
        <time>2022-12-10T13:49:01Z</time>
      </trkpt>
      <trkpt lat="43.68356" lon="3.8323">
        <ele>91.603676</ele>
        <time>2022-12-10T13:49:11Z</time>
      </trkpt>
      <trkpt lat="43.6833" lon="3.83252">
        <ele>91.148155</ele>
        <time>2022-12-10T13:49:21Z</time>
      </trkpt>
      <trkpt lat="43.68323" lon="3.83255">
        <ele>91.412842</ele>
        <time>2022-12-10T13:49:31Z</time>
      </trkpt>
      <trkpt lat="43.68312" lon="3.83248">
        <ele>91.712303</ele>
        <time>2022-12-10T13:50:01Z</time>
      </trkpt>
      <trkpt lat="43.68299" lon="3.83259">
        <ele>91.903587</ele>
        <time>2022-12-10T13:50:21Z</time>
      </trkpt>
      <trkpt lat="43.68287" lon="3.83275">
        <ele>92.605309</ele>
        <time>2022-12-10T13:50:31Z</time>
      </trkpt>
      <trkpt lat="43.68274" lon="3.83293">
        <ele>93.420166</ele>
        <time>2022-12-10T13:50:41Z</time>
      </trkpt>
      <trkpt lat="43.68262" lon="3.83318">
        <ele>93.781883</ele>
        <time>2022-12-10T13:50:51Z</time>
      </trkpt>
      <trkpt lat="43.68237" lon="3.83346">
        <ele>93.973183</ele>
        <time>2022-12-10T13:51:01Z</time>
      </trkpt>
      <trkpt lat="43.6821" lon="3.83371">
        <ele>94.88559</ele>
        <time>2022-12-10T13:51:11Z</time>
      </trkpt>
      <trkpt lat="43.68187" lon="3.83408">
        <ele>95.325714</ele>
        <time>2022-12-10T13:51:21Z</time>
      </trkpt>
      <trkpt lat="43.68164" lon="3.83445">
        <ele>94.113892</ele>
        <time>2022-12-10T13:51:31Z</time>
      </trkpt>
      <trkpt lat="43.68137" lon="3.8348">
        <ele>94.252403</ele>
        <time>2022-12-10T13:51:41Z</time>
      </trkpt>
      <trkpt lat="43.68113" lon="3.83524">
        <ele>95.560974</ele>
        <time>2022-12-10T13:51:51Z</time>
      </trkpt>
      <trkpt lat="43.68083" lon="3.83559">
        <ele>95.811043</ele>
        <time>2022-12-10T13:52:01Z</time>
      </trkpt>
      <trkpt lat="43.68052" lon="3.83591">
        <ele>96.763977</ele>
        <time>2022-12-10T13:52:11Z</time>
      </trkpt>
      <trkpt lat="43.6802" lon="3.83626">
        <ele>97.066628</ele>
        <time>2022-12-10T13:52:21Z</time>
      </trkpt>
      <trkpt lat="43.67996" lon="3.83652">
        <ele>96.536461</ele>
        <time>2022-12-10T13:52:31Z</time>
      </trkpt>
      <trkpt lat="43.67978" lon="3.83682">
        <ele>96.216148</ele>
        <time>2022-12-10T13:52:41Z</time>
      </trkpt>
      <trkpt lat="43.67952" lon="3.83707">
        <ele>95.635742</ele>
        <time>2022-12-10T13:52:51Z</time>
      </trkpt>
      <trkpt lat="43.67921" lon="3.8374">
        <ele>95.75528</ele>
        <time>2022-12-10T13:53:01Z</time>
      </trkpt>
      <trkpt lat="43.67893" lon="3.83761">
        <ele>95.512825</ele>
        <time>2022-12-10T13:53:11Z</time>
      </trkpt>
      <trkpt lat="43.67869" lon="3.83776">
        <ele>94.685219</ele>
        <time>2022-12-10T13:53:21Z</time>
      </trkpt>
      <trkpt lat="43.67838" lon="3.83797">
        <ele>93.187172</ele>
        <time>2022-12-10T13:53:31Z</time>
      </trkpt>
      <trkpt lat="43.67815" lon="3.83836">
        <ele>90.396484</ele>
        <time>2022-12-10T13:53:41Z</time>
      </trkpt>
      <trkpt lat="43.67798" lon="3.83875">
        <ele>87.308105</ele>
        <time>2022-12-10T13:53:51Z</time>
      </trkpt>
      <trkpt lat="43.67771" lon="3.83888">
        <ele>84.571289</ele>
        <time>2022-12-10T13:54:01Z</time>
      </trkpt>
      <trkpt lat="43.6775" lon="3.83874">
        <ele>83.60083</ele>
        <time>2022-12-10T13:54:11Z</time>
      </trkpt>
      <trkpt lat="43.67738" lon="3.83854">
        <ele>83.714745</ele>
        <time>2022-12-10T13:54:21Z</time>
      </trkpt>
      <trkpt lat="43.67728" lon="3.83827">
        <ele>84.820793</ele>
        <time>2022-12-10T13:54:31Z</time>
      </trkpt>
      <trkpt lat="43.67727" lon="3.83799">
        <ele>86.01709</ele>
        <time>2022-12-10T13:54:41Z</time>
      </trkpt>
      <trkpt lat="43.6773" lon="3.83772">
        <ele>87.726234</ele>
        <time>2022-12-10T13:54:51Z</time>
      </trkpt>
      <trkpt lat="43.67733" lon="3.83744">
        <ele>89.549103</ele>
        <time>2022-12-10T13:55:01Z</time>
      </trkpt>
      <trkpt lat="43.67734" lon="3.8371">
        <ele>91.409508</ele>
        <time>2022-12-10T13:55:11Z</time>
      </trkpt>
      <trkpt lat="43.67736" lon="3.83676">
        <ele>94.227837</ele>
        <time>2022-12-10T13:55:21Z</time>
      </trkpt>
      <trkpt lat="43.67734" lon="3.83652">
        <ele>96.147469</ele>
        <time>2022-12-10T13:55:31Z</time>
      </trkpt>
      <trkpt lat="43.6773" lon="3.83629">
        <ele>97.405449</ele>
        <time>2022-12-10T13:55:41Z</time>
      </trkpt>
      <trkpt lat="43.67725" lon="3.8361">
        <ele>98.455139</ele>
        <time>2022-12-10T13:55:51Z</time>
      </trkpt>
      <trkpt lat="43.6772" lon="3.83589">
        <ele>99.550621</ele>
        <time>2022-12-10T13:56:01Z</time>
      </trkpt>
      <trkpt lat="43.67716" lon="3.83567">
        <ele>100.758141</ele>
        <time>2022-12-10T13:56:11Z</time>
      </trkpt>
      <trkpt lat="43.67711" lon="3.83546">
        <ele>102.032654</ele>
        <time>2022-12-10T13:56:21Z</time>
      </trkpt>
      <trkpt lat="43.67707" lon="3.83527">
        <ele>103.640465</ele>
        <time>2022-12-10T13:56:31Z</time>
      </trkpt>
      <trkpt lat="43.67705" lon="3.83511">
        <ele>104.944275</ele>
        <time>2022-12-10T13:56:41Z</time>
      </trkpt>
      <trkpt lat="43.67711" lon="3.83493">
        <ele>106.383568</ele>
        <time>2022-12-10T13:56:51Z</time>
      </trkpt>
      <trkpt lat="43.67727" lon="3.83475">
        <ele>107.985191</ele>
        <time>2022-12-10T13:57:01Z</time>
      </trkpt>
      <trkpt lat="43.67745" lon="3.83458">
        <ele>109.873863</ele>
        <time>2022-12-10T13:57:11Z</time>
      </trkpt>
      <trkpt lat="43.67766" lon="3.83441">
        <ele>111.366112</ele>
        <time>2022-12-10T13:57:21Z</time>
      </trkpt>
      <trkpt lat="43.67785" lon="3.83419">
        <ele>111.905548</ele>
        <time>2022-12-10T13:57:31Z</time>
      </trkpt>
      <trkpt lat="43.67792" lon="3.83399">
        <ele>112.936668</ele>
        <time>2022-12-10T13:57:41Z</time>
      </trkpt>
      <trkpt lat="43.67791" lon="3.8338">
        <ele>114.322998</ele>
        <time>2022-12-10T13:57:51Z</time>
      </trkpt>
      <trkpt lat="43.6779" lon="3.83362">
        <ele>115.782654</ele>
        <time>2022-12-10T13:58:01Z</time>
      </trkpt>
      <trkpt lat="43.67788" lon="3.83347">
        <ele>117.253395</ele>
        <time>2022-12-10T13:58:11Z</time>
      </trkpt>
      <trkpt lat="43.67779" lon="3.83333">
        <ele>118.891357</ele>
        <time>2022-12-10T13:58:21Z</time>
      </trkpt>
      <trkpt lat="43.6777" lon="3.83327">
        <ele>120.458252</ele>
        <time>2022-12-10T13:58:31Z</time>
      </trkpt>
      <trkpt lat="43.67754" lon="3.83323">
        <ele>121.756508</ele>
        <time>2022-12-10T13:58:41Z</time>
      </trkpt>
      <trkpt lat="43.67738" lon="3.83321">
        <ele>122.665611</ele>
        <time>2022-12-10T13:58:51Z</time>
      </trkpt>
      <trkpt lat="43.6772" lon="3.83322">
        <ele>122.023766</ele>
        <time>2022-12-10T13:59:01Z</time>
      </trkpt>
      <trkpt lat="43.67702" lon="3.83321">
        <ele>121.419312</ele>
        <time>2022-12-10T13:59:11Z</time>
      </trkpt>
      <trkpt lat="43.67687" lon="3.83309">
        <ele>121.0028</ele>
        <time>2022-12-10T13:59:21Z</time>
      </trkpt>
      <trkpt lat="43.67684" lon="3.83288">
        <ele>122.072243</ele>
        <time>2022-12-10T13:59:31Z</time>
      </trkpt>
      <trkpt lat="43.6768" lon="3.83268">
        <ele>123.432129</ele>
        <time>2022-12-10T13:59:41Z</time>
      </trkpt>
      <trkpt lat="43.67675" lon="3.8325">
        <ele>124.428406</ele>
        <time>2022-12-10T13:59:51Z</time>
      </trkpt>
      <trkpt lat="43.67668" lon="3.83232">
        <ele>125.215538</ele>
        <time>2022-12-10T14:00:01Z</time>
      </trkpt>
      <trkpt lat="43.6766" lon="3.83215">
        <ele>125.853905</ele>
        <time>2022-12-10T14:00:11Z</time>
      </trkpt>
      <trkpt lat="43.67648" lon="3.83194">
        <ele>126.265114</ele>
        <time>2022-12-10T14:00:21Z</time>
      </trkpt>
      <trkpt lat="43.67631" lon="3.83174">
        <ele>126.22892</ele>
        <time>2022-12-10T14:00:31Z</time>
      </trkpt>
      <trkpt lat="43.67616" lon="3.83154">
        <ele>125.985291</ele>
        <time>2022-12-10T14:00:41Z</time>
      </trkpt>
      <trkpt lat="43.67602" lon="3.83137">
        <ele>125.933632</ele>
        <time>2022-12-10T14:00:51Z</time>
      </trkpt>
      <trkpt lat="43.67592" lon="3.83115">
        <ele>126.583092</ele>
        <time>2022-12-10T14:03:21Z</time>
      </trkpt>
      <trkpt lat="43.67577" lon="3.83097">
        <ele>127.099281</ele>
        <time>2022-12-10T14:03:41Z</time>
      </trkpt>
      <trkpt lat="43.67569" lon="3.83079">
        <ele>127.564697</ele>
        <time>2022-12-10T14:03:51Z</time>
      </trkpt>
      <trkpt lat="43.67586" lon="3.8307">
        <ele>128.637527</ele>
        <time>2022-12-10T14:04:01Z</time>
      </trkpt>
      <trkpt lat="43.67599" lon="3.83056">
        <ele>130.144455</ele>
        <time>2022-12-10T14:04:11Z</time>
      </trkpt>
      <trkpt lat="43.67606" lon="3.83038">
        <ele>131.685135</ele>
        <time>2022-12-10T14:04:21Z</time>
      </trkpt>
      <trkpt lat="43.67616" lon="3.83022">
        <ele>133.359451</ele>
        <time>2022-12-10T14:04:31Z</time>
      </trkpt>
      <trkpt lat="43.67624" lon="3.83004">
        <ele>134.97583</ele>
        <time>2022-12-10T14:04:41Z</time>
      </trkpt>
      <trkpt lat="43.67629" lon="3.82984">
        <ele>136.284348</ele>
        <time>2022-12-10T14:04:51Z</time>
      </trkpt>
      <trkpt lat="43.67625" lon="3.82964">
        <ele>137.507645</ele>
        <time>2022-12-10T14:05:21Z</time>
      </trkpt>
      <trkpt lat="43.67609" lon="3.82953">
        <ele>138.088974</ele>
        <time>2022-12-10T14:05:41Z</time>
      </trkpt>
      <trkpt lat="43.67592" lon="3.82942">
        <ele>138.091232</ele>
        <time>2022-12-10T14:05:51Z</time>
      </trkpt>
      <trkpt lat="43.67573" lon="3.8293">
        <ele>137.873535</ele>
        <time>2022-12-10T14:06:01Z</time>
      </trkpt>
      <trkpt lat="43.67554" lon="3.82918">
        <ele>137.562744</ele>
        <time>2022-12-10T14:06:11Z</time>
      </trkpt>
      <trkpt lat="43.67533" lon="3.82901">
        <ele>137.212891</ele>
        <time>2022-12-10T14:06:21Z</time>
      </trkpt>
      <trkpt lat="43.67527" lon="3.82872">
        <ele>137.234299</ele>
        <time>2022-12-10T14:06:31Z</time>
      </trkpt>
      <trkpt lat="43.67528" lon="3.82843">
        <ele>138.438477</ele>
        <time>2022-12-10T14:06:41Z</time>
      </trkpt>
      <trkpt lat="43.67514" lon="3.82824">
        <ele>138.893723</ele>
        <time>2022-12-10T14:06:51Z</time>
      </trkpt>
      <trkpt lat="43.67482" lon="3.82813">
        <ele>138.119797</ele>
        <time>2022-12-10T14:07:11Z</time>
      </trkpt>
      <trkpt lat="43.67457" lon="3.82794">
        <ele>136.434891</ele>
        <time>2022-12-10T14:07:21Z</time>
      </trkpt>
      <trkpt lat="43.67455" lon="3.82748">
        <ele>136.791656</ele>
        <time>2022-12-10T14:07:31Z</time>
      </trkpt>
      <trkpt lat="43.67449" lon="3.82697">
        <ele>137.750931</ele>
        <time>2022-12-10T14:07:41Z</time>
      </trkpt>
      <trkpt lat="43.67445" lon="3.82647">
        <ele>138.322311</ele>
        <time>2022-12-10T14:07:51Z</time>
      </trkpt>
      <trkpt lat="43.6744" lon="3.82607">
        <ele>139.371628</ele>
        <time>2022-12-10T14:08:01Z</time>
      </trkpt>
      <trkpt lat="43.67439" lon="3.82574">
        <ele>140.074005</ele>
        <time>2022-12-10T14:08:11Z</time>
      </trkpt>
      <trkpt lat="43.67439" lon="3.82543">
        <ele>140.112473</ele>
        <time>2022-12-10T14:08:21Z</time>
      </trkpt>
      <trkpt lat="43.67447" lon="3.82518">
        <ele>140.016739</ele>
        <time>2022-12-10T14:08:31Z</time>
      </trkpt>
      <trkpt lat="43.6745" lon="3.82485">
        <ele>139.521957</ele>
        <time>2022-12-10T14:10:11Z</time>
      </trkpt>
      <trkpt lat="43.67436" lon="3.82469">
        <ele>139.666824</ele>
        <time>2022-12-10T14:10:31Z</time>
      </trkpt>
      <trkpt lat="43.67431" lon="3.82445">
        <ele>139.613998</ele>
        <time>2022-12-10T14:10:41Z</time>
      </trkpt>
      <trkpt lat="43.67406" lon="3.82432">
        <ele>139.532104</ele>
        <time>2022-12-10T14:10:51Z</time>
      </trkpt>
      <trkpt lat="43.67382" lon="3.82427">
        <ele>139.416748</ele>
        <time>2022-12-10T14:11:01Z</time>
      </trkpt>
      <trkpt lat="43.67359" lon="3.82431">
        <ele>139.207657</ele>
        <time>2022-12-10T14:11:11Z</time>
      </trkpt>
      <trkpt lat="43.67321" lon="3.82439">
        <ele>138.996231</ele>
        <time>2022-12-10T14:11:21Z</time>
      </trkpt>
      <trkpt lat="43.67283" lon="3.82443">
        <ele>136.646576</ele>
        <time>2022-12-10T14:11:31Z</time>
      </trkpt>
      <trkpt lat="43.67248" lon="3.82461">
        <ele>134.155319</ele>
        <time>2022-12-10T14:11:41Z</time>
      </trkpt>
      <trkpt lat="43.67207" lon="3.82478">
        <ele>131.03801</ele>
        <time>2022-12-10T14:11:51Z</time>
      </trkpt>
      <trkpt lat="43.67173" lon="3.82522">
        <ele>127.681801</ele>
        <time>2022-12-10T14:12:01Z</time>
      </trkpt>
      <trkpt lat="43.67164" lon="3.82541">
        <ele>124.539436</ele>
        <time>2022-12-10T14:12:11Z</time>
      </trkpt>
      <trkpt lat="43.67181" lon="3.82504">
        <ele>125.430443</ele>
        <time>2022-12-10T14:12:31Z</time>
      </trkpt>
      <trkpt lat="43.67197" lon="3.82484">
        <ele>127.527321</ele>
        <time>2022-12-10T14:12:41Z</time>
      </trkpt>
      <trkpt lat="43.67214" lon="3.82468">
        <ele>128.659256</ele>
        <time>2022-12-10T14:13:51Z</time>
      </trkpt>
      <trkpt lat="43.67233" lon="3.82466">
        <ele>130.100418</ele>
        <time>2022-12-10T14:14:11Z</time>
      </trkpt>
      <trkpt lat="43.67255" lon="3.82455">
        <ele>132.098862</ele>
        <time>2022-12-10T14:14:21Z</time>
      </trkpt>
      <trkpt lat="43.67273" lon="3.82445">
        <ele>133.532288</ele>
        <time>2022-12-10T14:14:31Z</time>
      </trkpt>
      <trkpt lat="43.67301" lon="3.82442">
        <ele>135.26088</ele>
        <time>2022-12-10T14:14:41Z</time>
      </trkpt>
      <trkpt lat="43.67334" lon="3.82433">
        <ele>137.331802</ele>
        <time>2022-12-10T14:14:51Z</time>
      </trkpt>
      <trkpt lat="43.67347" lon="3.82416">
        <ele>139.081253</ele>
        <time>2022-12-10T14:15:01Z</time>
      </trkpt>
      <trkpt lat="43.67342" lon="3.82358">
        <ele>138.009964</ele>
        <time>2022-12-10T14:15:11Z</time>
      </trkpt>
      <trkpt lat="43.67333" lon="3.82311">
        <ele>135.42981</ele>
        <time>2022-12-10T14:15:21Z</time>
      </trkpt>
      <trkpt lat="43.6731" lon="3.82292">
        <ele>133.311462</ele>
        <time>2022-12-10T14:15:31Z</time>
      </trkpt>
      <trkpt lat="43.67283" lon="3.82294">
        <ele>131.929092</ele>
        <time>2022-12-10T14:15:41Z</time>
      </trkpt>
      <trkpt lat="43.6725" lon="3.82299">
        <ele>129.847305</ele>
        <time>2022-12-10T14:15:51Z</time>
      </trkpt>
      <trkpt lat="43.67223" lon="3.82313">
        <ele>127.839149</ele>
        <time>2022-12-10T14:16:01Z</time>
      </trkpt>
      <trkpt lat="43.67194" lon="3.82316">
        <ele>125.837761</ele>
        <time>2022-12-10T14:16:11Z</time>
      </trkpt>
      <trkpt lat="43.67168" lon="3.82303">
        <ele>125.452171</ele>
        <time>2022-12-10T14:16:21Z</time>
      </trkpt>
      <trkpt lat="43.67146" lon="3.82304">
        <ele>125.861275</ele>
        <time>2022-12-10T14:16:31Z</time>
      </trkpt>
      <trkpt lat="43.67114" lon="3.82287">
        <ele>126.169189</ele>
        <time>2022-12-10T14:16:51Z</time>
      </trkpt>
      <trkpt lat="43.67088" lon="3.82265">
        <ele>127.928307</ele>
        <time>2022-12-10T14:17:11Z</time>
      </trkpt>
      <trkpt lat="43.67068" lon="3.82263">
        <ele>129.468185</ele>
        <time>2022-12-10T14:17:21Z</time>
      </trkpt>
      <trkpt lat="43.67054" lon="3.82277">
        <ele>129.582626</ele>
        <time>2022-12-10T14:17:31Z</time>
      </trkpt>
      <trkpt lat="43.67041" lon="3.82309">
        <ele>129.27449</ele>
        <time>2022-12-10T14:17:41Z</time>
      </trkpt>
      <trkpt lat="43.67022" lon="3.82359">
        <ele>127.764282</ele>
        <time>2022-12-10T14:17:51Z</time>
      </trkpt>
      <trkpt lat="43.66991" lon="3.82401">
        <ele>125.118965</ele>
        <time>2022-12-10T14:18:01Z</time>
      </trkpt>
      <trkpt lat="43.66961" lon="3.82444">
        <ele>124.211853</ele>
        <time>2022-12-10T14:18:11Z</time>
      </trkpt>
      <trkpt lat="43.66934" lon="3.82472">
        <ele>124.499664</ele>
        <time>2022-12-10T14:18:21Z</time>
      </trkpt>
      <trkpt lat="43.66898" lon="3.82507">
        <ele>124.600044</ele>
        <time>2022-12-10T14:18:31Z</time>
      </trkpt>
      <trkpt lat="43.66862" lon="3.8254">
        <ele>125.564209</ele>
        <time>2022-12-10T14:18:41Z</time>
      </trkpt>
      <trkpt lat="43.66825" lon="3.82572">
        <ele>126.790314</ele>
        <time>2022-12-10T14:18:51Z</time>
      </trkpt>
      <trkpt lat="43.66789" lon="3.82609">
        <ele>127.819298</ele>
        <time>2022-12-10T14:19:01Z</time>
      </trkpt>
      <trkpt lat="43.6676" lon="3.82632">
        <ele>129.17157</ele>
        <time>2022-12-10T14:19:11Z</time>
      </trkpt>
      <trkpt lat="43.66728" lon="3.82654">
        <ele>130.338394</ele>
        <time>2022-12-10T14:19:21Z</time>
      </trkpt>
      <trkpt lat="43.66694" lon="3.82666">
        <ele>131.767303</ele>
        <time>2022-12-10T14:19:31Z</time>
      </trkpt>
      <trkpt lat="43.66684" lon="3.82689">
        <ele>132.676147</ele>
        <time>2022-12-10T14:19:41Z</time>
      </trkpt>
      <trkpt lat="43.6668" lon="3.82714">
        <ele>129.569321</ele>
        <time>2022-12-10T14:19:51Z</time>
      </trkpt>
      <trkpt lat="43.66666" lon="3.8273">
        <ele>128.252991</ele>
        <time>2022-12-10T14:20:01Z</time>
      </trkpt>
      <trkpt lat="43.6665" lon="3.82738">
        <ele>128.239212</ele>
        <time>2022-12-10T14:20:11Z</time>
      </trkpt>
      <trkpt lat="43.66629" lon="3.82752">
        <ele>129.202255</ele>
        <time>2022-12-10T14:20:21Z</time>
      </trkpt>
      <trkpt lat="43.666" lon="3.82774">
        <ele>130.648499</ele>
        <time>2022-12-10T14:20:31Z</time>
      </trkpt>
      <trkpt lat="43.6657" lon="3.82795">
        <ele>132.223862</ele>
        <time>2022-12-10T14:20:41Z</time>
      </trkpt>
      <trkpt lat="43.66542" lon="3.82816">
        <ele>133.50975</ele>
        <time>2022-12-10T14:20:51Z</time>
      </trkpt>
      <trkpt lat="43.66514" lon="3.82836">
        <ele>134.866287</ele>
        <time>2022-12-10T14:21:01Z</time>
      </trkpt>
      <trkpt lat="43.66484" lon="3.82856">
        <ele>135.38916</ele>
        <time>2022-12-10T14:21:11Z</time>
      </trkpt>
      <trkpt lat="43.66455" lon="3.82879">
        <ele>135.490051</ele>
        <time>2022-12-10T14:21:21Z</time>
      </trkpt>
      <trkpt lat="43.66425" lon="3.82902">
        <ele>135.908951</ele>
        <time>2022-12-10T14:21:31Z</time>
      </trkpt>
      <trkpt lat="43.66395" lon="3.82924">
        <ele>135.537521</ele>
        <time>2022-12-10T14:21:41Z</time>
      </trkpt>
      <trkpt lat="43.66351" lon="3.82948">
        <ele>135.231125</ele>
        <time>2022-12-10T14:21:51Z</time>
      </trkpt>
      <trkpt lat="43.66315" lon="3.82984">
        <ele>133.267685</ele>
        <time>2022-12-10T14:22:01Z</time>
      </trkpt>
      <trkpt lat="43.66268" lon="3.83018">
        <ele>128.080429</ele>
        <time>2022-12-10T14:22:11Z</time>
      </trkpt>
      <trkpt lat="43.66212" lon="3.83036">
        <ele>121.677391</ele>
        <time>2022-12-10T14:22:21Z</time>
      </trkpt>
      <trkpt lat="43.66185" lon="3.83024">
        <ele>117.284401</ele>
        <time>2022-12-10T14:22:31Z</time>
      </trkpt>
      <trkpt lat="43.66142" lon="3.82994">
        <ele>116.227875</ele>
        <time>2022-12-10T14:22:41Z</time>
      </trkpt>
      <trkpt lat="43.66089" lon="3.82976">
        <ele>114.217628</ele>
        <time>2022-12-10T14:22:51Z</time>
      </trkpt>
      <trkpt lat="43.66031" lon="3.82981">
        <ele>107.241005</ele>
        <time>2022-12-10T14:23:01Z</time>
      </trkpt>
      <trkpt lat="43.65976" lon="3.82991">
        <ele>99.938362</ele>
        <time>2022-12-10T14:23:11Z</time>
      </trkpt>
      <trkpt lat="43.65913" lon="3.82998">
        <ele>94.831635</ele>
        <time>2022-12-10T14:23:21Z</time>
      </trkpt>
      <trkpt lat="43.65854" lon="3.83006">
        <ele>93.674385</ele>
        <time>2022-12-10T14:23:31Z</time>
      </trkpt>
      <trkpt lat="43.65822" lon="3.8299">
        <ele>95.460991</ele>
        <time>2022-12-10T14:23:41Z</time>
      </trkpt>
      <trkpt lat="43.65801" lon="3.83026">
        <ele>97.815102</ele>
        <time>2022-12-10T14:23:51Z</time>
      </trkpt>
      <trkpt lat="43.6578" lon="3.83024">
        <ele>100.807335</ele>
        <time>2022-12-10T14:24:01Z</time>
      </trkpt>
      <trkpt lat="43.65767" lon="3.82989">
        <ele>104.68277</ele>
        <time>2022-12-10T14:24:11Z</time>
      </trkpt>
      <trkpt lat="43.65754" lon="3.8295">
        <ele>106.368004</ele>
        <time>2022-12-10T14:24:21Z</time>
      </trkpt>
      <trkpt lat="43.65738" lon="3.82923">
        <ele>107.830894</ele>
        <time>2022-12-10T14:24:31Z</time>
      </trkpt>
      <trkpt lat="43.65724" lon="3.82915">
        <ele>109.793617</ele>
        <time>2022-12-10T14:24:41Z</time>
      </trkpt>
      <trkpt lat="43.65713" lon="3.82914">
        <ele>111.875648</ele>
        <time>2022-12-10T14:24:51Z</time>
      </trkpt>
      <trkpt lat="43.65701" lon="3.82909">
        <ele>113.537437</ele>
        <time>2022-12-10T14:25:01Z</time>
      </trkpt>
      <trkpt lat="43.65688" lon="3.829">
        <ele>115.237953</ele>
        <time>2022-12-10T14:25:11Z</time>
      </trkpt>
      <trkpt lat="43.65676" lon="3.82895">
        <ele>116.768463</ele>
        <time>2022-12-10T14:25:21Z</time>
      </trkpt>
      <trkpt lat="43.65663" lon="3.82889">
        <ele>118.184105</ele>
        <time>2022-12-10T14:25:31Z</time>
      </trkpt>
      <trkpt lat="43.6565" lon="3.82889">
        <ele>119.665062</ele>
        <time>2022-12-10T14:25:41Z</time>
      </trkpt>
      <trkpt lat="43.65638" lon="3.82884">
        <ele>121.584145</ele>
        <time>2022-12-10T14:25:51Z</time>
      </trkpt>
      <trkpt lat="43.65627" lon="3.82884">
        <ele>123.040504</ele>
        <time>2022-12-10T14:26:01Z</time>
      </trkpt>
      <trkpt lat="43.65616" lon="3.82884">
        <ele>124.655754</ele>
        <time>2022-12-10T14:26:11Z</time>
      </trkpt>
      <trkpt lat="43.6561" lon="3.82871">
        <ele>125.101219</ele>
        <time>2022-12-10T14:26:21Z</time>
      </trkpt>
      <trkpt lat="43.656" lon="3.82858">
        <ele>124.757423</ele>
        <time>2022-12-10T14:26:31Z</time>
      </trkpt>
      <trkpt lat="43.65588" lon="3.82852">
        <ele>124.990479</ele>
        <time>2022-12-10T14:26:41Z</time>
      </trkpt>
      <trkpt lat="43.65574" lon="3.82844">
        <ele>125.964989</ele>
        <time>2022-12-10T14:26:51Z</time>
      </trkpt>
      <trkpt lat="43.65566" lon="3.8284">
        <ele>126.624062</ele>
        <time>2022-12-10T14:27:01Z</time>
      </trkpt>
      <trkpt lat="43.65555" lon="3.82833">
        <ele>127.231453</ele>
        <time>2022-12-10T14:27:11Z</time>
      </trkpt>
      <trkpt lat="43.65531" lon="3.82831">
        <ele>127.404991</ele>
        <time>2022-12-10T14:28:11Z</time>
      </trkpt>
      <trkpt lat="43.65518" lon="3.82833">
        <ele>127.484161</ele>
        <time>2022-12-10T14:28:31Z</time>
      </trkpt>
      <trkpt lat="43.65505" lon="3.82839">
        <ele>127.69062</ele>
        <time>2022-12-10T14:28:51Z</time>
      </trkpt>
      <trkpt lat="43.655" lon="3.82823">
        <ele>127.4804</ele>
        <time>2022-12-10T14:29:11Z</time>
      </trkpt>
      <trkpt lat="43.65486" lon="3.82809">
        <ele>127.074989</ele>
        <time>2022-12-10T14:29:31Z</time>
      </trkpt>
      <trkpt lat="43.65472" lon="3.8279">
        <ele>126.695824</ele>
        <time>2022-12-10T14:29:41Z</time>
      </trkpt>
      <trkpt lat="43.65455" lon="3.82774">
        <ele>125.873138</ele>
        <time>2022-12-10T14:29:51Z</time>
      </trkpt>
      <trkpt lat="43.65431" lon="3.82768">
        <ele>125.535126</ele>
        <time>2022-12-10T14:30:01Z</time>
      </trkpt>
      <trkpt lat="43.65409" lon="3.82743">
        <ele>125.286316</ele>
        <time>2022-12-10T14:30:11Z</time>
      </trkpt>
      <trkpt lat="43.65384" lon="3.82726">
        <ele>125.256615</ele>
        <time>2022-12-10T14:30:21Z</time>
      </trkpt>
      <trkpt lat="43.65358" lon="3.82717">
        <ele>124.66819</ele>
        <time>2022-12-10T14:30:31Z</time>
      </trkpt>
      <trkpt lat="43.6533" lon="3.827">
        <ele>124.570824</ele>
        <time>2022-12-10T14:30:41Z</time>
      </trkpt>
      <trkpt lat="43.653" lon="3.82676">
        <ele>124.261742</ele>
        <time>2022-12-10T14:30:51Z</time>
      </trkpt>
      <trkpt lat="43.65271" lon="3.82654">
        <ele>124.440865</ele>
        <time>2022-12-10T14:31:01Z</time>
      </trkpt>
      <trkpt lat="43.65247" lon="3.8262">
        <ele>123.511894</ele>
        <time>2022-12-10T14:31:11Z</time>
      </trkpt>
      <trkpt lat="43.65217" lon="3.82593">
        <ele>122.673988</ele>
        <time>2022-12-10T14:31:21Z</time>
      </trkpt>
      <trkpt lat="43.65192" lon="3.82555">
        <ele>122.818092</ele>
        <time>2022-12-10T14:31:31Z</time>
      </trkpt>
      <trkpt lat="43.65169" lon="3.82522">
        <ele>122.951836</ele>
        <time>2022-12-10T14:31:41Z</time>
      </trkpt>
      <trkpt lat="43.65147" lon="3.82498">
        <ele>123.16391</ele>
        <time>2022-12-10T14:31:51Z</time>
      </trkpt>
      <trkpt lat="43.65129" lon="3.82522">
        <ele>123.595894</ele>
        <time>2022-12-10T14:32:01Z</time>
      </trkpt>
      <trkpt lat="43.65107" lon="3.8255">
        <ele>123.621643</ele>
        <time>2022-12-10T14:32:11Z</time>
      </trkpt>
      <trkpt lat="43.65081" lon="3.82578">
        <ele>123.334312</ele>
        <time>2022-12-10T14:32:21Z</time>
      </trkpt>
      <trkpt lat="43.65036" lon="3.82585">
        <ele>122.567162</ele>
        <time>2022-12-10T14:32:31Z</time>
      </trkpt>
      <trkpt lat="43.64985" lon="3.82591">
        <ele>120.922852</ele>
        <time>2022-12-10T14:32:41Z</time>
      </trkpt>
      <trkpt lat="43.64953" lon="3.82597">
        <ele>118.865074</ele>
        <time>2022-12-10T14:32:51Z</time>
      </trkpt>
      <trkpt lat="43.64933" lon="3.82555">
        <ele>116.6922</ele>
        <time>2022-12-10T14:33:01Z</time>
      </trkpt>
      <trkpt lat="43.64923" lon="3.82504">
        <ele>114.274963</ele>
        <time>2022-12-10T14:33:11Z</time>
      </trkpt>
      <trkpt lat="43.649" lon="3.8246">
        <ele>109.606117</ele>
        <time>2022-12-10T14:33:21Z</time>
      </trkpt>
      <trkpt lat="43.64858" lon="3.82462">
        <ele>105.010094</ele>
        <time>2022-12-10T14:33:31Z</time>
      </trkpt>
      <trkpt lat="43.64814" lon="3.82444">
        <ele>103.049217</ele>
        <time>2022-12-10T14:33:41Z</time>
      </trkpt>
      <trkpt lat="43.64766" lon="3.8243">
        <ele>101.068848</ele>
        <time>2022-12-10T14:33:51Z</time>
      </trkpt>
      <trkpt lat="43.64718" lon="3.82427">
        <ele>101.117271</ele>
        <time>2022-12-10T14:34:01Z</time>
      </trkpt>
      <trkpt lat="43.64678" lon="3.82402">
        <ele>101.110695</ele>
        <time>2022-12-10T14:34:11Z</time>
      </trkpt>
      <trkpt lat="43.6464" lon="3.82376">
        <ele>100.863533</ele>
        <time>2022-12-10T14:34:21Z</time>
      </trkpt>
      <trkpt lat="43.64611" lon="3.82353">
        <ele>100.77787</ele>
        <time>2022-12-10T14:34:31Z</time>
      </trkpt>
      <trkpt lat="43.6458" lon="3.82327">
        <ele>101.128143</ele>
        <time>2022-12-10T14:34:41Z</time>
      </trkpt>
      <trkpt lat="43.64549" lon="3.82311">
        <ele>101.796547</ele>
        <time>2022-12-10T14:34:51Z</time>
      </trkpt>
      <trkpt lat="43.64518" lon="3.82304">
        <ele>102.703773</ele>
        <time>2022-12-10T14:35:01Z</time>
      </trkpt>
      <trkpt lat="43.6449" lon="3.82286">
        <ele>103.383125</ele>
        <time>2022-12-10T14:35:11Z</time>
      </trkpt>
      <trkpt lat="43.64462" lon="3.82275">
        <ele>104.126167</ele>
        <time>2022-12-10T14:35:21Z</time>
      </trkpt>
      <trkpt lat="43.64431" lon="3.82251">
        <ele>104.959755</ele>
        <time>2022-12-10T14:35:31Z</time>
      </trkpt>
      <trkpt lat="43.64406" lon="3.82247">
        <ele>105.774254</ele>
        <time>2022-12-10T14:35:41Z</time>
      </trkpt>
      <trkpt lat="43.64375" lon="3.82259">
        <ele>105.950005</ele>
        <time>2022-12-10T14:35:51Z</time>
      </trkpt>
      <trkpt lat="43.64352" lon="3.8227">
        <ele>106.123177</ele>
        <time>2022-12-10T14:36:01Z</time>
      </trkpt>
      <trkpt lat="43.64337" lon="3.82304">
        <ele>105.902046</ele>
        <time>2022-12-10T14:36:11Z</time>
      </trkpt>
      <trkpt lat="43.6432" lon="3.82351">
        <ele>104.964333</ele>
        <time>2022-12-10T14:36:21Z</time>
      </trkpt>
      <trkpt lat="43.643" lon="3.82386">
        <ele>103.831963</ele>
        <time>2022-12-10T14:36:31Z</time>
      </trkpt>
      <trkpt lat="43.64277" lon="3.82418">
        <ele>102.864723</ele>
        <time>2022-12-10T14:36:41Z</time>
      </trkpt>
      <trkpt lat="43.64257" lon="3.82461">
        <ele>101.745605</ele>
        <time>2022-12-10T14:36:51Z</time>
      </trkpt>
      <trkpt lat="43.6423" lon="3.82522">
        <ele>99.776283</ele>
        <time>2022-12-10T14:37:01Z</time>
      </trkpt>
      <trkpt lat="43.64201" lon="3.82579">
        <ele>97.462242</ele>
        <time>2022-12-10T14:37:11Z</time>
      </trkpt>
      <trkpt lat="43.6417" lon="3.82623">
        <ele>95.855873</ele>
        <time>2022-12-10T14:37:21Z</time>
      </trkpt>
      <trkpt lat="43.64136" lon="3.82667">
        <ele>93.443359</ele>
        <time>2022-12-10T14:37:31Z</time>
      </trkpt>
      <trkpt lat="43.64093" lon="3.82715">
        <ele>90.85215</ele>
        <time>2022-12-10T14:37:41Z</time>
      </trkpt>
      <trkpt lat="43.64048" lon="3.82752">
        <ele>87.77771</ele>
        <time>2022-12-10T14:37:51Z</time>
      </trkpt>
      <trkpt lat="43.64014" lon="3.82786">
        <ele>85.078697</ele>
        <time>2022-12-10T14:38:01Z</time>
      </trkpt>
      <trkpt lat="43.63969" lon="3.82799">
        <ele>83.109543</ele>
        <time>2022-12-10T14:38:11Z</time>
      </trkpt>
      <trkpt lat="43.63924" lon="3.82819">
        <ele>81.740677</ele>
        <time>2022-12-10T14:38:21Z</time>
      </trkpt>
      <trkpt lat="43.63896" lon="3.8279">
        <ele>81.743156</ele>
        <time>2022-12-10T14:38:31Z</time>
      </trkpt>
      <trkpt lat="43.63881" lon="3.82745">
        <ele>84.646889</ele>
        <time>2022-12-10T14:38:41Z</time>
      </trkpt>
      <trkpt lat="43.63863" lon="3.8271">
        <ele>87.695961</ele>
        <time>2022-12-10T14:38:51Z</time>
      </trkpt>
      <trkpt lat="43.63815" lon="3.82721">
        <ele>89.012901</ele>
        <time>2022-12-10T14:39:01Z</time>
      </trkpt>
      <trkpt lat="43.63763" lon="3.82745">
        <ele>87.120689</ele>
        <time>2022-12-10T14:39:11Z</time>
      </trkpt>
      <trkpt lat="43.6374" lon="3.82747">
        <ele>86.985107</ele>
        <time>2022-12-10T14:39:21Z</time>
      </trkpt>
      <trkpt lat="43.63726" lon="3.82752">
        <ele>87.017418</ele>
        <time>2022-12-10T14:42:51Z</time>
      </trkpt>
      <trkpt lat="43.63694" lon="3.82759">
        <ele>87.32251</ele>
        <time>2022-12-10T14:43:11Z</time>
      </trkpt>
      <trkpt lat="43.63657" lon="3.82768">
        <ele>87.750572</ele>
        <time>2022-12-10T14:43:21Z</time>
      </trkpt>
      <trkpt lat="43.63644" lon="3.82736">
        <ele>88.87484</ele>
        <time>2022-12-10T14:43:31Z</time>
      </trkpt>
      <trkpt lat="43.63643" lon="3.82699">
        <ele>91.044678</ele>
        <time>2022-12-10T14:43:41Z</time>
      </trkpt>
      <trkpt lat="43.63629" lon="3.82677">
        <ele>91.725456</ele>
        <time>2022-12-10T14:43:51Z</time>
      </trkpt>
      <trkpt lat="43.63615" lon="3.82653">
        <ele>91.988091</ele>
        <time>2022-12-10T14:44:01Z</time>
      </trkpt>
      <trkpt lat="43.63599" lon="3.82638">
        <ele>91.990578</ele>
        <time>2022-12-10T14:44:11Z</time>
      </trkpt>
      <trkpt lat="43.63593" lon="3.82608">
        <ele>91.623528</ele>
        <time>2022-12-10T14:44:21Z</time>
      </trkpt>
      <trkpt lat="43.63585" lon="3.82577">
        <ele>91.112274</ele>
        <time>2022-12-10T14:44:31Z</time>
      </trkpt>
      <trkpt lat="43.6358" lon="3.82547">
        <ele>90.486992</ele>
        <time>2022-12-10T14:44:41Z</time>
      </trkpt>
      <trkpt lat="43.63572" lon="3.82515">
        <ele>89.819038</ele>
        <time>2022-12-10T14:44:51Z</time>
      </trkpt>
      <trkpt lat="43.63558" lon="3.82515">
        <ele>88.438904</ele>
        <time>2022-12-10T14:45:01Z</time>
      </trkpt>
      <trkpt lat="43.63527" lon="3.82536">
        <ele>87.679779</ele>
        <time>2022-12-10T14:45:11Z</time>
      </trkpt>
      <trkpt lat="43.63488" lon="3.82542">
        <ele>85.330528</ele>
        <time>2022-12-10T14:45:21Z</time>
      </trkpt>
      <trkpt lat="43.63441" lon="3.82547">
        <ele>82.598541</ele>
        <time>2022-12-10T14:45:31Z</time>
      </trkpt>
      <trkpt lat="43.63395" lon="3.82554">
        <ele>79.415314</ele>
        <time>2022-12-10T14:45:41Z</time>
      </trkpt>
      <trkpt lat="43.63349" lon="3.82572">
        <ele>76.408852</ele>
        <time>2022-12-10T14:45:51Z</time>
      </trkpt>
      <trkpt lat="43.63314" lon="3.82597">
        <ele>74.481499</ele>
        <time>2022-12-10T14:46:01Z</time>
      </trkpt>
      <trkpt lat="43.63283" lon="3.82624">
        <ele>73.410889</ele>
        <time>2022-12-10T14:46:11Z</time>
      </trkpt>
      <trkpt lat="43.63253" lon="3.82656">
        <ele>73.116859</ele>
        <time>2022-12-10T14:46:21Z</time>
      </trkpt>
      <trkpt lat="43.63231" lon="3.82692">
        <ele>73.405571</ele>
        <time>2022-12-10T14:46:31Z</time>
      </trkpt>
      <trkpt lat="43.63208" lon="3.82726">
        <ele>73.88092</ele>
        <time>2022-12-10T14:46:41Z</time>
      </trkpt>
      <trkpt lat="43.63187" lon="3.82769">
        <ele>74.481491</ele>
        <time>2022-12-10T14:46:51Z</time>
      </trkpt>
      <trkpt lat="43.63168" lon="3.828">
        <ele>75.952553</ele>
        <time>2022-12-10T14:47:01Z</time>
      </trkpt>
      <trkpt lat="43.6315" lon="3.82833">
        <ele>76.934242</ele>
        <time>2022-12-10T14:47:11Z</time>
      </trkpt>
      <trkpt lat="43.63145" lon="3.82849">
        <ele>77.864006</ele>
        <time>2022-12-10T14:47:21Z</time>
      </trkpt>
      <trkpt lat="43.63133" lon="3.82872">
        <ele>78.474968</ele>
        <time>2022-12-10T14:47:31Z</time>
      </trkpt>
      <trkpt lat="43.63113" lon="3.82908">
        <ele>78.827049</ele>
        <time>2022-12-10T14:47:51Z</time>
      </trkpt>
      <trkpt lat="43.63094" lon="3.82944">
        <ele>79.244362</ele>
        <time>2022-12-10T14:48:01Z</time>
      </trkpt>
      <trkpt lat="43.63079" lon="3.82971">
        <ele>79.553581</ele>
        <time>2022-12-10T14:48:11Z</time>
      </trkpt>
      <trkpt lat="43.63061" lon="3.82993">
        <ele>79.768089</ele>
        <time>2022-12-10T14:48:21Z</time>
      </trkpt>
      <trkpt lat="43.63046" lon="3.83013">
        <ele>79.818268</ele>
        <time>2022-12-10T14:48:31Z</time>
      </trkpt>
      <trkpt lat="43.63034" lon="3.8304">
        <ele>80.28698</ele>
        <time>2022-12-10T14:48:41Z</time>
      </trkpt>
      <trkpt lat="43.63012" lon="3.8304">
        <ele>80.643135</ele>
        <time>2022-12-10T14:48:51Z</time>
      </trkpt>
      <trkpt lat="43.62983" lon="3.83034">
        <ele>80.034172</ele>
        <time>2022-12-10T14:49:01Z</time>
      </trkpt>
      <trkpt lat="43.62955" lon="3.83024">
        <ele>79.363182</ele>
        <time>2022-12-10T14:49:11Z</time>
      </trkpt>
      <trkpt lat="43.62923" lon="3.83037">
        <ele>78.838158</ele>
        <time>2022-12-10T14:49:21Z</time>
      </trkpt>
      <trkpt lat="43.62901" lon="3.8306">
        <ele>79.880531</ele>
        <time>2022-12-10T14:49:31Z</time>
      </trkpt>
      <trkpt lat="43.629" lon="3.8309">
        <ele>81.784874</ele>
        <time>2022-12-10T14:49:41Z</time>
      </trkpt>
      <trkpt lat="43.62879" lon="3.83082">
        <ele>82.246819</ele>
        <time>2022-12-10T14:49:51Z</time>
      </trkpt>
      <trkpt lat="43.6285" lon="3.83082">
        <ele>82.095398</ele>
        <time>2022-12-10T14:50:01Z</time>
      </trkpt>
      <trkpt lat="43.62823" lon="3.83085">
        <ele>82.240715</ele>
        <time>2022-12-10T14:50:11Z</time>
      </trkpt>
      <trkpt lat="43.62794" lon="3.83094">
        <ele>82.537834</ele>
        <time>2022-12-10T14:50:21Z</time>
      </trkpt>
      <trkpt lat="43.62767" lon="3.83097">
        <ele>82.979271</ele>
        <time>2022-12-10T14:50:31Z</time>
      </trkpt>
      <trkpt lat="43.62738" lon="3.83108">
        <ele>83.486626</ele>
        <time>2022-12-10T14:50:41Z</time>
      </trkpt>
      <trkpt lat="43.62707" lon="3.83126">
        <ele>84.585045</ele>
        <time>2022-12-10T14:50:51Z</time>
      </trkpt>
      <trkpt lat="43.62672" lon="3.83152">
        <ele>86.075928</ele>
        <time>2022-12-10T14:51:01Z</time>
      </trkpt>
      <trkpt lat="43.62644" lon="3.83181">
        <ele>86.763023</ele>
        <time>2022-12-10T14:51:11Z</time>
      </trkpt>
      <trkpt lat="43.6261" lon="3.83217">
        <ele>85.808754</ele>
        <time>2022-12-10T14:51:21Z</time>
      </trkpt>
      <trkpt lat="43.62569" lon="3.83269">
        <ele>84.08667</ele>
        <time>2022-12-10T14:51:31Z</time>
      </trkpt>
      <trkpt lat="43.62536" lon="3.83342">
        <ele>80.833008</ele>
        <time>2022-12-10T14:51:41Z</time>
      </trkpt>
      <trkpt lat="43.62508" lon="3.8342">
        <ele>78.165527</ele>
        <time>2022-12-10T14:51:51Z</time>
      </trkpt>
      <trkpt lat="43.62478" lon="3.83426">
        <ele>76.284004</ele>
        <time>2022-12-10T14:56:21Z</time>
      </trkpt>
    </trkseg>
  </trk>
</gpx>